<?xml version="1.0" encoding="UTF-8" standalone="no" ?>
<gpx xmlns="http://www.topografix.com/GPX/1/1" xmlns:xsi="http://www.w3.org/2001/XMLSchema-instance" xsi:schemaLocation="http://www.topografix.com/GPX/1/1 http://www.topografix.com/GPX/1/1/gpx.xsd" version="1.1" creator="VisuGPX - https://www.visugpx.com">
  <metadata>
    <name>Saint-Mont-Barcelonne-du-Gers (10)</name>
    <desc><![CDATA[Dixième tronçon du sentier de l'Adour entre Saint-Mont et Barcelonne-du-Gers. Le parcours de Saint-Mont à Barcelonne-du-Gers a été fait en aller-Retour. Seul l'aller figure ici.

]]></desc>
  </metadata>
  <trk>
    <name><![CDATA[28 mars 2021 à 09:11:00]]></name>
    <cmt><![CDATA[28 mars 2021 à 09:11:00]]></cmt>
    <trkseg>
      <trkpt lat="43.6555" lon="-0.14733">
        <ele>95</ele>
        <time>2021-03-28T07:11:01Z</time>
      </trkpt>
      <trkpt lat="43.65546" lon="-0.14731">
        <ele>95</ele>
        <time>2021-03-28T07:11:40Z</time>
      </trkpt>
      <trkpt lat="43.65547" lon="-0.14732">
        <ele>95</ele>
        <time>2021-03-28T07:13:04Z</time>
      </trkpt>
      <trkpt lat="43.65552" lon="-0.14729">
        <ele>95</ele>
        <time>2021-03-28T07:16:47Z</time>
      </trkpt>
      <trkpt lat="43.65553" lon="-0.14727">
        <ele>95</ele>
        <time>2021-03-28T07:17:13Z</time>
      </trkpt>
      <trkpt lat="43.65557" lon="-0.14727">
        <ele>95</ele>
        <time>2021-03-28T07:17:31Z</time>
      </trkpt>
      <trkpt lat="43.65552" lon="-0.14734">
        <ele>95</ele>
        <time>2021-03-28T07:17:54Z</time>
      </trkpt>
      <trkpt lat="43.65551" lon="-0.14739">
        <ele>95</ele>
        <time>2021-03-28T07:17:57Z</time>
      </trkpt>
      <trkpt lat="43.65552" lon="-0.14744">
        <ele>95</ele>
        <time>2021-03-28T07:18:00Z</time>
      </trkpt>
      <trkpt lat="43.65554" lon="-0.14751">
        <ele>95</ele>
        <time>2021-03-28T07:18:04Z</time>
      </trkpt>
      <trkpt lat="43.65555" lon="-0.14757">
        <ele>96</ele>
        <time>2021-03-28T07:18:08Z</time>
      </trkpt>
      <trkpt lat="43.65561" lon="-0.14766">
        <ele>96</ele>
        <time>2021-03-28T07:18:17Z</time>
      </trkpt>
      <trkpt lat="43.65571" lon="-0.1477">
        <ele>96</ele>
        <time>2021-03-28T07:18:24Z</time>
      </trkpt>
      <trkpt lat="43.65575" lon="-0.14769">
        <ele>96</ele>
        <time>2021-03-28T07:18:27Z</time>
      </trkpt>
      <trkpt lat="43.65579" lon="-0.14767">
        <ele>96</ele>
        <time>2021-03-28T07:18:30Z</time>
      </trkpt>
      <trkpt lat="43.65582" lon="-0.14762">
        <ele>95</ele>
        <time>2021-03-28T07:18:34Z</time>
      </trkpt>
      <trkpt lat="43.65585" lon="-0.14759">
        <ele>95</ele>
        <time>2021-03-28T07:18:37Z</time>
      </trkpt>
      <trkpt lat="43.6559" lon="-0.14757">
        <ele>95</ele>
        <time>2021-03-28T07:18:40Z</time>
      </trkpt>
      <trkpt lat="43.65597" lon="-0.14751">
        <ele>95</ele>
        <time>2021-03-28T07:18:47Z</time>
      </trkpt>
      <trkpt lat="43.65601" lon="-0.14752">
        <ele>95</ele>
        <time>2021-03-28T07:18:50Z</time>
      </trkpt>
      <trkpt lat="43.65602" lon="-0.14755">
        <ele>95</ele>
        <time>2021-03-28T07:18:59Z</time>
      </trkpt>
      <trkpt lat="43.65593" lon="-0.14777">
        <ele>95</ele>
        <time>2021-03-28T07:19:15Z</time>
      </trkpt>
      <trkpt lat="43.65592" lon="-0.14783">
        <ele>95</ele>
        <time>2021-03-28T07:19:18Z</time>
      </trkpt>
      <trkpt lat="43.65593" lon="-0.14801">
        <ele>95</ele>
        <time>2021-03-28T07:19:28Z</time>
      </trkpt>
      <trkpt lat="43.65595" lon="-0.14813">
        <ele>95</ele>
        <time>2021-03-28T07:19:35Z</time>
      </trkpt>
      <trkpt lat="43.65595" lon="-0.14818">
        <ele>95</ele>
        <time>2021-03-28T07:19:38Z</time>
      </trkpt>
      <trkpt lat="43.65599" lon="-0.14834">
        <ele>95</ele>
        <time>2021-03-28T07:19:47Z</time>
      </trkpt>
      <trkpt lat="43.65601" lon="-0.14846">
        <ele>95</ele>
        <time>2021-03-28T07:19:55Z</time>
      </trkpt>
      <trkpt lat="43.65603" lon="-0.14852">
        <ele>95</ele>
        <time>2021-03-28T07:19:59Z</time>
      </trkpt>
      <trkpt lat="43.65604" lon="-0.14859">
        <ele>95</ele>
        <time>2021-03-28T07:20:02Z</time>
      </trkpt>
      <trkpt lat="43.65608" lon="-0.14869">
        <ele>95</ele>
        <time>2021-03-28T07:20:09Z</time>
      </trkpt>
      <trkpt lat="43.65619" lon="-0.14927">
        <ele>95</ele>
        <time>2021-03-28T07:20:43Z</time>
      </trkpt>
      <trkpt lat="43.65621" lon="-0.14954">
        <ele>95</ele>
        <time>2021-03-28T07:20:59Z</time>
      </trkpt>
      <trkpt lat="43.65618" lon="-0.14963">
        <ele>95</ele>
        <time>2021-03-28T07:21:07Z</time>
      </trkpt>
      <trkpt lat="43.65617" lon="-0.1497">
        <ele>95</ele>
        <time>2021-03-28T07:21:11Z</time>
      </trkpt>
      <trkpt lat="43.65615" lon="-0.14976">
        <ele>95</ele>
        <time>2021-03-28T07:21:14Z</time>
      </trkpt>
      <trkpt lat="43.65616" lon="-0.14983">
        <ele>95</ele>
        <time>2021-03-28T07:21:17Z</time>
      </trkpt>
      <trkpt lat="43.65613" lon="-0.15022">
        <ele>95</ele>
        <time>2021-03-28T07:21:39Z</time>
      </trkpt>
      <trkpt lat="43.65612" lon="-0.15034">
        <ele>95</ele>
        <time>2021-03-28T07:21:46Z</time>
      </trkpt>
      <trkpt lat="43.65614" lon="-0.15041">
        <ele>95</ele>
        <time>2021-03-28T07:21:49Z</time>
      </trkpt>
      <trkpt lat="43.65613" lon="-0.15053">
        <ele>96</ele>
        <time>2021-03-28T07:22:10Z</time>
      </trkpt>
      <trkpt lat="43.6561" lon="-0.1506">
        <ele>96</ele>
        <time>2021-03-28T07:22:15Z</time>
      </trkpt>
      <trkpt lat="43.65602" lon="-0.15072">
        <ele>96</ele>
        <time>2021-03-28T07:22:32Z</time>
      </trkpt>
      <trkpt lat="43.6558" lon="-0.15094">
        <ele>95</ele>
        <time>2021-03-28T07:22:54Z</time>
      </trkpt>
      <trkpt lat="43.65565" lon="-0.15101">
        <ele>95</ele>
        <time>2021-03-28T07:23:08Z</time>
      </trkpt>
      <trkpt lat="43.65534" lon="-0.15104">
        <ele>95</ele>
        <time>2021-03-28T07:23:31Z</time>
      </trkpt>
      <trkpt lat="43.6553" lon="-0.15108">
        <ele>95</ele>
        <time>2021-03-28T07:23:35Z</time>
      </trkpt>
      <trkpt lat="43.65528" lon="-0.15114">
        <ele>95</ele>
        <time>2021-03-28T07:23:38Z</time>
      </trkpt>
      <trkpt lat="43.65528" lon="-0.15132">
        <ele>95</ele>
        <time>2021-03-28T07:23:48Z</time>
      </trkpt>
      <trkpt lat="43.65528" lon="-0.15158">
        <ele>95</ele>
        <time>2021-03-28T07:24:01Z</time>
      </trkpt>
      <trkpt lat="43.65527" lon="-0.15164">
        <ele>95</ele>
        <time>2021-03-28T07:24:05Z</time>
      </trkpt>
      <trkpt lat="43.65532" lon="-0.15189">
        <ele>95</ele>
        <time>2021-03-28T07:24:18Z</time>
      </trkpt>
      <trkpt lat="43.65534" lon="-0.15194">
        <ele>95</ele>
        <time>2021-03-28T07:24:22Z</time>
      </trkpt>
      <trkpt lat="43.65537" lon="-0.15208">
        <ele>95</ele>
        <time>2021-03-28T07:24:29Z</time>
      </trkpt>
      <trkpt lat="43.65552" lon="-0.15241">
        <ele>95</ele>
        <time>2021-03-28T07:24:50Z</time>
      </trkpt>
      <trkpt lat="43.65553" lon="-0.15252">
        <ele>95</ele>
        <time>2021-03-28T07:24:56Z</time>
      </trkpt>
      <trkpt lat="43.6555" lon="-0.15257">
        <ele>95</ele>
        <time>2021-03-28T07:24:59Z</time>
      </trkpt>
      <trkpt lat="43.65549" lon="-0.15269">
        <ele>95</ele>
        <time>2021-03-28T07:25:06Z</time>
      </trkpt>
      <trkpt lat="43.65549" lon="-0.15282">
        <ele>95</ele>
        <time>2021-03-28T07:25:14Z</time>
      </trkpt>
      <trkpt lat="43.65533" lon="-0.15317">
        <ele>95</ele>
        <time>2021-03-28T07:25:38Z</time>
      </trkpt>
      <trkpt lat="43.65534" lon="-0.15331">
        <ele>95</ele>
        <time>2021-03-28T07:25:45Z</time>
      </trkpt>
      <trkpt lat="43.65538" lon="-0.15343">
        <ele>95</ele>
        <time>2021-03-28T07:25:51Z</time>
      </trkpt>
      <trkpt lat="43.65568" lon="-0.15388">
        <ele>95</ele>
        <time>2021-03-28T07:26:23Z</time>
      </trkpt>
      <trkpt lat="43.65585" lon="-0.15415">
        <ele>95</ele>
        <time>2021-03-28T07:26:43Z</time>
      </trkpt>
      <trkpt lat="43.65587" lon="-0.1542">
        <ele>95</ele>
        <time>2021-03-28T07:26:46Z</time>
      </trkpt>
      <trkpt lat="43.65592" lon="-0.15429">
        <ele>95</ele>
        <time>2021-03-28T07:26:52Z</time>
      </trkpt>
      <trkpt lat="43.65609" lon="-0.15476">
        <ele>95</ele>
        <time>2021-03-28T07:27:21Z</time>
      </trkpt>
      <trkpt lat="43.65612" lon="-0.15508">
        <ele>95</ele>
        <time>2021-03-28T07:27:40Z</time>
      </trkpt>
      <trkpt lat="43.6561" lon="-0.15513">
        <ele>95</ele>
        <time>2021-03-28T07:27:43Z</time>
      </trkpt>
      <trkpt lat="43.65609" lon="-0.15532">
        <ele>95</ele>
        <time>2021-03-28T07:27:52Z</time>
      </trkpt>
      <trkpt lat="43.65607" lon="-0.15536">
        <ele>95</ele>
        <time>2021-03-28T07:27:55Z</time>
      </trkpt>
      <trkpt lat="43.65607" lon="-0.1557">
        <ele>95</ele>
        <time>2021-03-28T07:28:14Z</time>
      </trkpt>
      <trkpt lat="43.65605" lon="-0.15579">
        <ele>95</ele>
        <time>2021-03-28T07:28:20Z</time>
      </trkpt>
      <trkpt lat="43.65606" lon="-0.15584">
        <ele>95</ele>
        <time>2021-03-28T07:28:23Z</time>
      </trkpt>
      <trkpt lat="43.65605" lon="-0.15589">
        <ele>95</ele>
        <time>2021-03-28T07:28:27Z</time>
      </trkpt>
      <trkpt lat="43.65607" lon="-0.15603">
        <ele>95</ele>
        <time>2021-03-28T07:29:00Z</time>
      </trkpt>
      <trkpt lat="43.65607" lon="-0.15608">
        <ele>95</ele>
        <time>2021-03-28T07:29:03Z</time>
      </trkpt>
      <trkpt lat="43.65616" lon="-0.15631">
        <ele>95</ele>
        <time>2021-03-28T07:29:20Z</time>
      </trkpt>
      <trkpt lat="43.65619" lon="-0.15634">
        <ele>95</ele>
        <time>2021-03-28T07:29:24Z</time>
      </trkpt>
      <trkpt lat="43.6562" lon="-0.15629">
        <ele>95</ele>
        <time>2021-03-28T07:29:27Z</time>
      </trkpt>
      <trkpt lat="43.65626" lon="-0.15647">
        <ele>95</ele>
        <time>2021-03-28T07:29:58Z</time>
      </trkpt>
      <trkpt lat="43.65646" lon="-0.15692">
        <ele>95</ele>
        <time>2021-03-28T07:30:27Z</time>
      </trkpt>
      <trkpt lat="43.65651" lon="-0.15701">
        <ele>95</ele>
        <time>2021-03-28T07:30:33Z</time>
      </trkpt>
      <trkpt lat="43.65659" lon="-0.15722">
        <ele>95</ele>
        <time>2021-03-28T07:30:46Z</time>
      </trkpt>
      <trkpt lat="43.65665" lon="-0.1573">
        <ele>95</ele>
        <time>2021-03-28T07:30:52Z</time>
      </trkpt>
      <trkpt lat="43.65667" lon="-0.15734">
        <ele>95</ele>
        <time>2021-03-28T07:30:55Z</time>
      </trkpt>
      <trkpt lat="43.65669" lon="-0.15745">
        <ele>95</ele>
        <time>2021-03-28T07:31:01Z</time>
      </trkpt>
      <trkpt lat="43.65675" lon="-0.15753">
        <ele>95</ele>
        <time>2021-03-28T07:31:07Z</time>
      </trkpt>
      <trkpt lat="43.65687" lon="-0.15782">
        <ele>95</ele>
        <time>2021-03-28T07:31:25Z</time>
      </trkpt>
      <trkpt lat="43.6569" lon="-0.15785">
        <ele>95</ele>
        <time>2021-03-28T07:31:28Z</time>
      </trkpt>
      <trkpt lat="43.65712" lon="-0.15832">
        <ele>95</ele>
        <time>2021-03-28T07:31:59Z</time>
      </trkpt>
      <trkpt lat="43.65723" lon="-0.15857">
        <ele>95</ele>
        <time>2021-03-28T07:32:16Z</time>
      </trkpt>
      <trkpt lat="43.65727" lon="-0.15868">
        <ele>95</ele>
        <time>2021-03-28T07:32:22Z</time>
      </trkpt>
      <trkpt lat="43.65739" lon="-0.15895">
        <ele>94</ele>
        <time>2021-03-28T07:32:40Z</time>
      </trkpt>
      <trkpt lat="43.65747" lon="-0.1592">
        <ele>94</ele>
        <time>2021-03-28T07:32:55Z</time>
      </trkpt>
      <trkpt lat="43.65749" lon="-0.15924">
        <ele>94</ele>
        <time>2021-03-28T07:32:58Z</time>
      </trkpt>
      <trkpt lat="43.65755" lon="-0.15945">
        <ele>94</ele>
        <time>2021-03-28T07:33:11Z</time>
      </trkpt>
      <trkpt lat="43.6576" lon="-0.15953">
        <ele>94</ele>
        <time>2021-03-28T07:33:17Z</time>
      </trkpt>
      <trkpt lat="43.65766" lon="-0.15979">
        <ele>94</ele>
        <time>2021-03-28T07:33:38Z</time>
      </trkpt>
      <trkpt lat="43.65777" lon="-0.16005">
        <ele>94</ele>
        <time>2021-03-28T07:34:11Z</time>
      </trkpt>
      <trkpt lat="43.65781" lon="-0.16013">
        <ele>94</ele>
        <time>2021-03-28T07:34:17Z</time>
      </trkpt>
      <trkpt lat="43.65788" lon="-0.16027">
        <ele>94</ele>
        <time>2021-03-28T07:34:26Z</time>
      </trkpt>
      <trkpt lat="43.65799" lon="-0.16059">
        <ele>95</ele>
        <time>2021-03-28T07:34:46Z</time>
      </trkpt>
      <trkpt lat="43.65802" lon="-0.16063">
        <ele>95</ele>
        <time>2021-03-28T07:34:53Z</time>
      </trkpt>
      <trkpt lat="43.65807" lon="-0.16062">
        <ele>95</ele>
        <time>2021-03-28T07:35:23Z</time>
      </trkpt>
      <trkpt lat="43.65811" lon="-0.16065">
        <ele>95</ele>
        <time>2021-03-28T07:35:26Z</time>
      </trkpt>
      <trkpt lat="43.65814" lon="-0.16066">
        <ele>94</ele>
        <time>2021-03-28T07:35:29Z</time>
      </trkpt>
      <trkpt lat="43.65819" lon="-0.16068">
        <ele>94</ele>
        <time>2021-03-28T07:35:36Z</time>
      </trkpt>
      <trkpt lat="43.65848" lon="-0.16076">
        <ele>94</ele>
        <time>2021-03-28T07:36:00Z</time>
      </trkpt>
      <trkpt lat="43.65851" lon="-0.16076">
        <ele>94</ele>
        <time>2021-03-28T07:36:03Z</time>
      </trkpt>
      <trkpt lat="43.65867" lon="-0.16082">
        <ele>94</ele>
        <time>2021-03-28T07:36:15Z</time>
      </trkpt>
      <trkpt lat="43.65871" lon="-0.16082">
        <ele>94</ele>
        <time>2021-03-28T07:36:18Z</time>
      </trkpt>
      <trkpt lat="43.65874" lon="-0.16084">
        <ele>94</ele>
        <time>2021-03-28T07:36:21Z</time>
      </trkpt>
      <trkpt lat="43.65889" lon="-0.1609">
        <ele>94</ele>
        <time>2021-03-28T07:36:36Z</time>
      </trkpt>
      <trkpt lat="43.65909" lon="-0.16101">
        <ele>94</ele>
        <time>2021-03-28T07:36:52Z</time>
      </trkpt>
      <trkpt lat="43.65913" lon="-0.16101">
        <ele>94</ele>
        <time>2021-03-28T07:36:55Z</time>
      </trkpt>
      <trkpt lat="43.65934" lon="-0.16115">
        <ele>94</ele>
        <time>2021-03-28T07:37:39Z</time>
      </trkpt>
      <trkpt lat="43.65947" lon="-0.16122">
        <ele>94</ele>
        <time>2021-03-28T07:37:51Z</time>
      </trkpt>
      <trkpt lat="43.65952" lon="-0.16124">
        <ele>94</ele>
        <time>2021-03-28T07:37:55Z</time>
      </trkpt>
      <trkpt lat="43.6598" lon="-0.16151">
        <ele>94</ele>
        <time>2021-03-28T07:38:26Z</time>
      </trkpt>
      <trkpt lat="43.65985" lon="-0.16153">
        <ele>94</ele>
        <time>2021-03-28T07:38:31Z</time>
      </trkpt>
      <trkpt lat="43.65999" lon="-0.16169">
        <ele>93</ele>
        <time>2021-03-28T07:38:46Z</time>
      </trkpt>
      <trkpt lat="43.66003" lon="-0.16176">
        <ele>93</ele>
        <time>2021-03-28T07:38:53Z</time>
      </trkpt>
      <trkpt lat="43.66007" lon="-0.16181">
        <ele>93</ele>
        <time>2021-03-28T07:38:57Z</time>
      </trkpt>
      <trkpt lat="43.66011" lon="-0.16183">
        <ele>93</ele>
        <time>2021-03-28T07:39:01Z</time>
      </trkpt>
      <trkpt lat="43.66015" lon="-0.16184">
        <ele>94</ele>
        <time>2021-03-28T07:39:04Z</time>
      </trkpt>
      <trkpt lat="43.66028" lon="-0.16183">
        <ele>93</ele>
        <time>2021-03-28T07:39:17Z</time>
      </trkpt>
      <trkpt lat="43.66031" lon="-0.16179">
        <ele>93</ele>
        <time>2021-03-28T07:39:20Z</time>
      </trkpt>
      <trkpt lat="43.66049" lon="-0.16173">
        <ele>93</ele>
        <time>2021-03-28T07:39:35Z</time>
      </trkpt>
      <trkpt lat="43.66075" lon="-0.16179">
        <ele>93</ele>
        <time>2021-03-28T07:39:57Z</time>
      </trkpt>
      <trkpt lat="43.66087" lon="-0.16171">
        <ele>93</ele>
        <time>2021-03-28T07:40:09Z</time>
      </trkpt>
      <trkpt lat="43.66092" lon="-0.16171">
        <ele>94</ele>
        <time>2021-03-28T07:40:14Z</time>
      </trkpt>
      <trkpt lat="43.66095" lon="-0.16173">
        <ele>94</ele>
        <time>2021-03-28T07:40:17Z</time>
      </trkpt>
      <trkpt lat="43.66104" lon="-0.16173">
        <ele>94</ele>
        <time>2021-03-28T07:40:24Z</time>
      </trkpt>
      <trkpt lat="43.66108" lon="-0.16174">
        <ele>94</ele>
        <time>2021-03-28T07:40:28Z</time>
      </trkpt>
      <trkpt lat="43.66112" lon="-0.16177">
        <ele>94</ele>
        <time>2021-03-28T07:40:31Z</time>
      </trkpt>
      <trkpt lat="43.66116" lon="-0.16178">
        <ele>94</ele>
        <time>2021-03-28T07:40:34Z</time>
      </trkpt>
      <trkpt lat="43.66127" lon="-0.16177">
        <ele>94</ele>
        <time>2021-03-28T07:40:43Z</time>
      </trkpt>
      <trkpt lat="43.66139" lon="-0.16181">
        <ele>94</ele>
        <time>2021-03-28T07:40:53Z</time>
      </trkpt>
      <trkpt lat="43.6615" lon="-0.16191">
        <ele>94</ele>
        <time>2021-03-28T07:41:04Z</time>
      </trkpt>
      <trkpt lat="43.66175" lon="-0.1623">
        <ele>93</ele>
        <time>2021-03-28T07:41:33Z</time>
      </trkpt>
      <trkpt lat="43.66179" lon="-0.16233">
        <ele>93</ele>
        <time>2021-03-28T07:41:37Z</time>
      </trkpt>
      <trkpt lat="43.66184" lon="-0.16232">
        <ele>93</ele>
        <time>2021-03-28T07:41:41Z</time>
      </trkpt>
      <trkpt lat="43.66188" lon="-0.16229">
        <ele>93</ele>
        <time>2021-03-28T07:41:44Z</time>
      </trkpt>
      <trkpt lat="43.66191" lon="-0.16221">
        <ele>93</ele>
        <time>2021-03-28T07:41:50Z</time>
      </trkpt>
      <trkpt lat="43.662" lon="-0.16194">
        <ele>93</ele>
        <time>2021-03-28T07:42:06Z</time>
      </trkpt>
      <trkpt lat="43.66214" lon="-0.1617">
        <ele>93</ele>
        <time>2021-03-28T07:42:24Z</time>
      </trkpt>
      <trkpt lat="43.66217" lon="-0.16155">
        <ele>93</ele>
        <time>2021-03-28T07:42:30Z</time>
      </trkpt>
      <trkpt lat="43.66226" lon="-0.16138">
        <ele>93</ele>
        <time>2021-03-28T07:42:41Z</time>
      </trkpt>
      <trkpt lat="43.6623" lon="-0.16135">
        <ele>93</ele>
        <time>2021-03-28T07:42:49Z</time>
      </trkpt>
      <trkpt lat="43.66234" lon="-0.16138">
        <ele>93</ele>
        <time>2021-03-28T07:42:54Z</time>
      </trkpt>
      <trkpt lat="43.66257" lon="-0.16182">
        <ele>93</ele>
        <time>2021-03-28T07:43:28Z</time>
      </trkpt>
      <trkpt lat="43.66257" lon="-0.16187">
        <ele>93</ele>
        <time>2021-03-28T07:43:31Z</time>
      </trkpt>
      <trkpt lat="43.66266" lon="-0.16199">
        <ele>94</ele>
        <time>2021-03-28T07:43:41Z</time>
      </trkpt>
      <trkpt lat="43.66269" lon="-0.16206">
        <ele>93</ele>
        <time>2021-03-28T07:43:47Z</time>
      </trkpt>
      <trkpt lat="43.66268" lon="-0.16211">
        <ele>94</ele>
        <time>2021-03-28T07:43:53Z</time>
      </trkpt>
      <trkpt lat="43.66273" lon="-0.16207">
        <ele>94</ele>
        <time>2021-03-28T07:44:05Z</time>
      </trkpt>
      <trkpt lat="43.66277" lon="-0.16206">
        <ele>93</ele>
        <time>2021-03-28T07:44:23Z</time>
      </trkpt>
      <trkpt lat="43.66278" lon="-0.16211">
        <ele>92</ele>
        <time>2021-03-28T07:44:28Z</time>
      </trkpt>
      <trkpt lat="43.66279" lon="-0.16217">
        <ele>92</ele>
        <time>2021-03-28T07:44:32Z</time>
      </trkpt>
      <trkpt lat="43.66287" lon="-0.16231">
        <ele>92</ele>
        <time>2021-03-28T07:44:42Z</time>
      </trkpt>
      <trkpt lat="43.66296" lon="-0.16251">
        <ele>92</ele>
        <time>2021-03-28T07:44:55Z</time>
      </trkpt>
      <trkpt lat="43.66297" lon="-0.16256">
        <ele>93</ele>
        <time>2021-03-28T07:44:58Z</time>
      </trkpt>
      <trkpt lat="43.66307" lon="-0.1628">
        <ele>93</ele>
        <time>2021-03-28T07:45:13Z</time>
      </trkpt>
      <trkpt lat="43.66318" lon="-0.16332">
        <ele>93</ele>
        <time>2021-03-28T07:45:44Z</time>
      </trkpt>
      <trkpt lat="43.66323" lon="-0.16352">
        <ele>93</ele>
        <time>2021-03-28T07:45:56Z</time>
      </trkpt>
      <trkpt lat="43.66328" lon="-0.16405">
        <ele>93</ele>
        <time>2021-03-28T07:46:27Z</time>
      </trkpt>
      <trkpt lat="43.66334" lon="-0.16462">
        <ele>93</ele>
        <time>2021-03-28T07:46:58Z</time>
      </trkpt>
      <trkpt lat="43.66337" lon="-0.16473">
        <ele>93</ele>
        <time>2021-03-28T07:47:04Z</time>
      </trkpt>
      <trkpt lat="43.66348" lon="-0.16494">
        <ele>93</ele>
        <time>2021-03-28T07:47:18Z</time>
      </trkpt>
      <trkpt lat="43.66356" lon="-0.16506">
        <ele>93</ele>
        <time>2021-03-28T07:47:27Z</time>
      </trkpt>
      <trkpt lat="43.66358" lon="-0.1651">
        <ele>93</ele>
        <time>2021-03-28T07:47:30Z</time>
      </trkpt>
      <trkpt lat="43.66378" lon="-0.16535">
        <ele>94</ele>
        <time>2021-03-28T07:47:53Z</time>
      </trkpt>
      <trkpt lat="43.66384" lon="-0.16548">
        <ele>94</ele>
        <time>2021-03-28T07:48:02Z</time>
      </trkpt>
      <trkpt lat="43.664" lon="-0.16572">
        <ele>94</ele>
        <time>2021-03-28T07:48:20Z</time>
      </trkpt>
      <trkpt lat="43.66406" lon="-0.16585">
        <ele>94</ele>
        <time>2021-03-28T07:48:29Z</time>
      </trkpt>
      <trkpt lat="43.66411" lon="-0.16592">
        <ele>94</ele>
        <time>2021-03-28T07:48:35Z</time>
      </trkpt>
      <trkpt lat="43.66416" lon="-0.16604">
        <ele>94</ele>
        <time>2021-03-28T07:48:45Z</time>
      </trkpt>
      <trkpt lat="43.66419" lon="-0.16609">
        <ele>94</ele>
        <time>2021-03-28T07:49:15Z</time>
      </trkpt>
      <trkpt lat="43.66422" lon="-0.16614">
        <ele>94</ele>
        <time>2021-03-28T07:49:19Z</time>
      </trkpt>
      <trkpt lat="43.66426" lon="-0.16628">
        <ele>94</ele>
        <time>2021-03-28T07:49:34Z</time>
      </trkpt>
      <trkpt lat="43.66439" lon="-0.16654">
        <ele>94</ele>
        <time>2021-03-28T07:49:53Z</time>
      </trkpt>
      <trkpt lat="43.66445" lon="-0.1667">
        <ele>94</ele>
        <time>2021-03-28T07:50:05Z</time>
      </trkpt>
      <trkpt lat="43.66456" lon="-0.16691">
        <ele>94</ele>
        <time>2021-03-28T07:50:20Z</time>
      </trkpt>
      <trkpt lat="43.66459" lon="-0.16695">
        <ele>94</ele>
        <time>2021-03-28T07:50:23Z</time>
      </trkpt>
      <trkpt lat="43.66479" lon="-0.16743">
        <ele>95</ele>
        <time>2021-03-28T07:50:54Z</time>
      </trkpt>
      <trkpt lat="43.66486" lon="-0.16759">
        <ele>94</ele>
        <time>2021-03-28T07:51:04Z</time>
      </trkpt>
      <trkpt lat="43.66487" lon="-0.16765">
        <ele>94</ele>
        <time>2021-03-28T07:51:07Z</time>
      </trkpt>
      <trkpt lat="43.66492" lon="-0.16773">
        <ele>94</ele>
        <time>2021-03-28T07:51:13Z</time>
      </trkpt>
      <trkpt lat="43.66495" lon="-0.16776">
        <ele>94</ele>
        <time>2021-03-28T07:51:16Z</time>
      </trkpt>
      <trkpt lat="43.66497" lon="-0.1678">
        <ele>94</ele>
        <time>2021-03-28T07:51:19Z</time>
      </trkpt>
      <trkpt lat="43.66507" lon="-0.16792">
        <ele>94</ele>
        <time>2021-03-28T07:51:29Z</time>
      </trkpt>
      <trkpt lat="43.66517" lon="-0.168">
        <ele>94</ele>
        <time>2021-03-28T07:51:38Z</time>
      </trkpt>
      <trkpt lat="43.66524" lon="-0.16806">
        <ele>94</ele>
        <time>2021-03-28T07:51:44Z</time>
      </trkpt>
      <trkpt lat="43.66528" lon="-0.16808">
        <ele>94</ele>
        <time>2021-03-28T07:51:47Z</time>
      </trkpt>
      <trkpt lat="43.66552" lon="-0.1683">
        <ele>94</ele>
        <time>2021-03-28T07:52:10Z</time>
      </trkpt>
      <trkpt lat="43.66571" lon="-0.16859">
        <ele>94</ele>
        <time>2021-03-28T07:52:33Z</time>
      </trkpt>
      <trkpt lat="43.66574" lon="-0.16863">
        <ele>94</ele>
        <time>2021-03-28T07:52:36Z</time>
      </trkpt>
      <trkpt lat="43.66579" lon="-0.16873">
        <ele>94</ele>
        <time>2021-03-28T07:52:42Z</time>
      </trkpt>
      <trkpt lat="43.66582" lon="-0.16876">
        <ele>94</ele>
        <time>2021-03-28T07:52:45Z</time>
      </trkpt>
      <trkpt lat="43.666" lon="-0.16907">
        <ele>93</ele>
        <time>2021-03-28T07:53:07Z</time>
      </trkpt>
      <trkpt lat="43.66603" lon="-0.16917">
        <ele>93</ele>
        <time>2021-03-28T07:53:13Z</time>
      </trkpt>
      <trkpt lat="43.66606" lon="-0.16921">
        <ele>93</ele>
        <time>2021-03-28T07:53:16Z</time>
      </trkpt>
      <trkpt lat="43.66612" lon="-0.16941">
        <ele>93</ele>
        <time>2021-03-28T07:53:29Z</time>
      </trkpt>
      <trkpt lat="43.66613" lon="-0.16945">
        <ele>93</ele>
        <time>2021-03-28T07:53:32Z</time>
      </trkpt>
      <trkpt lat="43.66618" lon="-0.1695">
        <ele>94</ele>
        <time>2021-03-28T07:53:55Z</time>
      </trkpt>
      <trkpt lat="43.66621" lon="-0.16959">
        <ele>93</ele>
        <time>2021-03-28T07:54:07Z</time>
      </trkpt>
      <trkpt lat="43.6663" lon="-0.16979">
        <ele>93</ele>
        <time>2021-03-28T07:54:19Z</time>
      </trkpt>
      <trkpt lat="43.66633" lon="-0.16982">
        <ele>93</ele>
        <time>2021-03-28T07:54:22Z</time>
      </trkpt>
      <trkpt lat="43.66638" lon="-0.1699">
        <ele>93</ele>
        <time>2021-03-28T07:54:28Z</time>
      </trkpt>
      <trkpt lat="43.66646" lon="-0.17003">
        <ele>93</ele>
        <time>2021-03-28T07:54:37Z</time>
      </trkpt>
      <trkpt lat="43.66653" lon="-0.17017">
        <ele>93</ele>
        <time>2021-03-28T07:54:46Z</time>
      </trkpt>
      <trkpt lat="43.66655" lon="-0.1702">
        <ele>93</ele>
        <time>2021-03-28T07:54:49Z</time>
      </trkpt>
      <trkpt lat="43.66661" lon="-0.17028">
        <ele>93</ele>
        <time>2021-03-28T07:54:55Z</time>
      </trkpt>
      <trkpt lat="43.66668" lon="-0.17042">
        <ele>93</ele>
        <time>2021-03-28T07:55:04Z</time>
      </trkpt>
      <trkpt lat="43.6667" lon="-0.17045">
        <ele>93</ele>
        <time>2021-03-28T07:55:07Z</time>
      </trkpt>
      <trkpt lat="43.66684" lon="-0.17074">
        <ele>93</ele>
        <time>2021-03-28T07:55:25Z</time>
      </trkpt>
      <trkpt lat="43.66707" lon="-0.17111">
        <ele>93</ele>
        <time>2021-03-28T07:55:53Z</time>
      </trkpt>
      <trkpt lat="43.66711" lon="-0.17112">
        <ele>93</ele>
        <time>2021-03-28T07:55:57Z</time>
      </trkpt>
      <trkpt lat="43.66713" lon="-0.17109">
        <ele>93</ele>
        <time>2021-03-28T07:56:10Z</time>
      </trkpt>
      <trkpt lat="43.66717" lon="-0.1711">
        <ele>93</ele>
        <time>2021-03-28T07:56:33Z</time>
      </trkpt>
      <trkpt lat="43.66733" lon="-0.17118">
        <ele>93</ele>
        <time>2021-03-28T07:56:48Z</time>
      </trkpt>
      <trkpt lat="43.66737" lon="-0.17119">
        <ele>93</ele>
        <time>2021-03-28T07:56:51Z</time>
      </trkpt>
      <trkpt lat="43.66745" lon="-0.17118">
        <ele>93</ele>
        <time>2021-03-28T07:56:57Z</time>
      </trkpt>
      <trkpt lat="43.66766" lon="-0.17124">
        <ele>93</ele>
        <time>2021-03-28T07:57:15Z</time>
      </trkpt>
      <trkpt lat="43.66774" lon="-0.17125">
        <ele>93</ele>
        <time>2021-03-28T07:57:22Z</time>
      </trkpt>
      <trkpt lat="43.66789" lon="-0.17132">
        <ele>93</ele>
        <time>2021-03-28T07:57:34Z</time>
      </trkpt>
      <trkpt lat="43.66792" lon="-0.17136">
        <ele>93</ele>
        <time>2021-03-28T07:57:38Z</time>
      </trkpt>
      <trkpt lat="43.66801" lon="-0.17141">
        <ele>93</ele>
        <time>2021-03-28T07:57:46Z</time>
      </trkpt>
      <trkpt lat="43.66815" lon="-0.17146">
        <ele>93</ele>
        <time>2021-03-28T07:57:57Z</time>
      </trkpt>
      <trkpt lat="43.66819" lon="-0.17148">
        <ele>93</ele>
        <time>2021-03-28T07:58:00Z</time>
      </trkpt>
      <trkpt lat="43.66823" lon="-0.17147">
        <ele>93</ele>
        <time>2021-03-28T07:58:04Z</time>
      </trkpt>
      <trkpt lat="43.6683" lon="-0.17145">
        <ele>93</ele>
        <time>2021-03-28T07:58:11Z</time>
      </trkpt>
      <trkpt lat="43.66843" lon="-0.17151">
        <ele>92</ele>
        <time>2021-03-28T07:58:21Z</time>
      </trkpt>
      <trkpt lat="43.66847" lon="-0.17154">
        <ele>92</ele>
        <time>2021-03-28T07:58:24Z</time>
      </trkpt>
      <trkpt lat="43.66854" lon="-0.17161">
        <ele>92</ele>
        <time>2021-03-28T07:58:30Z</time>
      </trkpt>
      <trkpt lat="43.66858" lon="-0.17163">
        <ele>92</ele>
        <time>2021-03-28T07:58:33Z</time>
      </trkpt>
      <trkpt lat="43.66861" lon="-0.17168">
        <ele>92</ele>
        <time>2021-03-28T07:58:36Z</time>
      </trkpt>
      <trkpt lat="43.66863" lon="-0.17173">
        <ele>92</ele>
        <time>2021-03-28T07:58:39Z</time>
      </trkpt>
      <trkpt lat="43.66869" lon="-0.17183">
        <ele>92</ele>
        <time>2021-03-28T07:58:46Z</time>
      </trkpt>
      <trkpt lat="43.66875" lon="-0.17198">
        <ele>92</ele>
        <time>2021-03-28T07:58:57Z</time>
      </trkpt>
      <trkpt lat="43.66878" lon="-0.17202">
        <ele>92</ele>
        <time>2021-03-28T07:59:00Z</time>
      </trkpt>
      <trkpt lat="43.66889" lon="-0.17221">
        <ele>92</ele>
        <time>2021-03-28T07:59:14Z</time>
      </trkpt>
      <trkpt lat="43.66892" lon="-0.17223">
        <ele>92</ele>
        <time>2021-03-28T07:59:22Z</time>
      </trkpt>
      <trkpt lat="43.66893" lon="-0.17229">
        <ele>92</ele>
        <time>2021-03-28T07:59:34Z</time>
      </trkpt>
      <trkpt lat="43.669" lon="-0.17254">
        <ele>91</ele>
        <time>2021-03-28T07:59:52Z</time>
      </trkpt>
      <trkpt lat="43.66902" lon="-0.17264">
        <ele>91</ele>
        <time>2021-03-28T07:59:58Z</time>
      </trkpt>
      <trkpt lat="43.66904" lon="-0.17273">
        <ele>91</ele>
        <time>2021-03-28T08:00:06Z</time>
      </trkpt>
      <trkpt lat="43.66902" lon="-0.17291">
        <ele>91</ele>
        <time>2021-03-28T08:00:22Z</time>
      </trkpt>
      <trkpt lat="43.66901" lon="-0.17312">
        <ele>91</ele>
        <time>2021-03-28T08:00:38Z</time>
      </trkpt>
      <trkpt lat="43.66887" lon="-0.17363">
        <ele>92</ele>
        <time>2021-03-28T08:01:08Z</time>
      </trkpt>
      <trkpt lat="43.66885" lon="-0.1737">
        <ele>92</ele>
        <time>2021-03-28T08:01:12Z</time>
      </trkpt>
      <trkpt lat="43.66884" lon="-0.17377">
        <ele>92</ele>
        <time>2021-03-28T08:01:16Z</time>
      </trkpt>
      <trkpt lat="43.66882" lon="-0.17384">
        <ele>92</ele>
        <time>2021-03-28T08:01:19Z</time>
      </trkpt>
      <trkpt lat="43.66881" lon="-0.17389">
        <ele>92</ele>
        <time>2021-03-28T08:01:21Z</time>
      </trkpt>
      <trkpt lat="43.66885" lon="-0.17412">
        <ele>91</ele>
        <time>2021-03-28T08:01:33Z</time>
      </trkpt>
      <trkpt lat="43.66894" lon="-0.17426">
        <ele>91</ele>
        <time>2021-03-28T08:01:43Z</time>
      </trkpt>
      <trkpt lat="43.66894" lon="-0.17432">
        <ele>91</ele>
        <time>2021-03-28T08:01:45Z</time>
      </trkpt>
      <trkpt lat="43.66897" lon="-0.17435">
        <ele>91</ele>
        <time>2021-03-28T08:01:57Z</time>
      </trkpt>
      <trkpt lat="43.66909" lon="-0.17445">
        <ele>91</ele>
        <time>2021-03-28T08:02:08Z</time>
      </trkpt>
      <trkpt lat="43.66918" lon="-0.17461">
        <ele>91</ele>
        <time>2021-03-28T08:02:20Z</time>
      </trkpt>
      <trkpt lat="43.66921" lon="-0.17469">
        <ele>91</ele>
        <time>2021-03-28T08:02:26Z</time>
      </trkpt>
      <trkpt lat="43.66925" lon="-0.17473">
        <ele>91</ele>
        <time>2021-03-28T08:02:29Z</time>
      </trkpt>
      <trkpt lat="43.66927" lon="-0.17478">
        <ele>91</ele>
        <time>2021-03-28T08:02:32Z</time>
      </trkpt>
      <trkpt lat="43.6694" lon="-0.17499">
        <ele>91</ele>
        <time>2021-03-28T08:02:47Z</time>
      </trkpt>
      <trkpt lat="43.66949" lon="-0.17506">
        <ele>91</ele>
        <time>2021-03-28T08:02:57Z</time>
      </trkpt>
      <trkpt lat="43.66952" lon="-0.1751">
        <ele>91</ele>
        <time>2021-03-28T08:03:01Z</time>
      </trkpt>
      <trkpt lat="43.66957" lon="-0.17521">
        <ele>91</ele>
        <time>2021-03-28T08:03:08Z</time>
      </trkpt>
      <trkpt lat="43.6698" lon="-0.17554">
        <ele>91</ele>
        <time>2021-03-28T08:03:33Z</time>
      </trkpt>
      <trkpt lat="43.66982" lon="-0.17559">
        <ele>91</ele>
        <time>2021-03-28T08:03:36Z</time>
      </trkpt>
      <trkpt lat="43.66985" lon="-0.17563">
        <ele>91</ele>
        <time>2021-03-28T08:03:39Z</time>
      </trkpt>
      <trkpt lat="43.66988" lon="-0.17566">
        <ele>91</ele>
        <time>2021-03-28T08:03:42Z</time>
      </trkpt>
      <trkpt lat="43.66995" lon="-0.17579">
        <ele>91</ele>
        <time>2021-03-28T08:03:51Z</time>
      </trkpt>
      <trkpt lat="43.66997" lon="-0.17585">
        <ele>91</ele>
        <time>2021-03-28T08:03:55Z</time>
      </trkpt>
      <trkpt lat="43.67024" lon="-0.17624">
        <ele>91</ele>
        <time>2021-03-28T08:04:26Z</time>
      </trkpt>
      <trkpt lat="43.67033" lon="-0.17635">
        <ele>92</ele>
        <time>2021-03-28T08:04:35Z</time>
      </trkpt>
      <trkpt lat="43.67036" lon="-0.17637">
        <ele>92</ele>
        <time>2021-03-28T08:04:38Z</time>
      </trkpt>
      <trkpt lat="43.67046" lon="-0.1765">
        <ele>92</ele>
        <time>2021-03-28T08:04:49Z</time>
      </trkpt>
      <trkpt lat="43.67053" lon="-0.17653">
        <ele>92</ele>
        <time>2021-03-28T08:04:55Z</time>
      </trkpt>
      <trkpt lat="43.6706" lon="-0.17659">
        <ele>92</ele>
        <time>2021-03-28T08:05:01Z</time>
      </trkpt>
      <trkpt lat="43.67083" lon="-0.17673">
        <ele>91</ele>
        <time>2021-03-28T08:05:20Z</time>
      </trkpt>
      <trkpt lat="43.67087" lon="-0.17676">
        <ele>91</ele>
        <time>2021-03-28T08:05:23Z</time>
      </trkpt>
      <trkpt lat="43.6709" lon="-0.17677">
        <ele>91</ele>
        <time>2021-03-28T08:05:27Z</time>
      </trkpt>
      <trkpt lat="43.67095" lon="-0.17681">
        <ele>92</ele>
        <time>2021-03-28T08:05:56Z</time>
      </trkpt>
      <trkpt lat="43.67098" lon="-0.17684">
        <ele>91</ele>
        <time>2021-03-28T08:06:05Z</time>
      </trkpt>
      <trkpt lat="43.67109" lon="-0.17691">
        <ele>91</ele>
        <time>2021-03-28T08:06:15Z</time>
      </trkpt>
      <trkpt lat="43.67115" lon="-0.17692">
        <ele>91</ele>
        <time>2021-03-28T08:06:21Z</time>
      </trkpt>
      <trkpt lat="43.67148" lon="-0.17723">
        <ele>91</ele>
        <time>2021-03-28T08:06:54Z</time>
      </trkpt>
      <trkpt lat="43.67179" lon="-0.17745">
        <ele>91</ele>
        <time>2021-03-28T08:07:22Z</time>
      </trkpt>
      <trkpt lat="43.67182" lon="-0.1775">
        <ele>91</ele>
        <time>2021-03-28T08:07:25Z</time>
      </trkpt>
      <trkpt lat="43.67211" lon="-0.17771">
        <ele>91</ele>
        <time>2021-03-28T08:07:52Z</time>
      </trkpt>
      <trkpt lat="43.67218" lon="-0.17771">
        <ele>91</ele>
        <time>2021-03-28T08:08:03Z</time>
      </trkpt>
      <trkpt lat="43.6722" lon="-0.17777">
        <ele>91</ele>
        <time>2021-03-28T08:08:33Z</time>
      </trkpt>
      <trkpt lat="43.67258" lon="-0.17802">
        <ele>91</ele>
        <time>2021-03-28T08:09:06Z</time>
      </trkpt>
      <trkpt lat="43.67262" lon="-0.17803">
        <ele>91</ele>
        <time>2021-03-28T08:09:09Z</time>
      </trkpt>
      <trkpt lat="43.6727" lon="-0.17809">
        <ele>91</ele>
        <time>2021-03-28T08:09:16Z</time>
      </trkpt>
      <trkpt lat="43.67274" lon="-0.17811">
        <ele>91</ele>
        <time>2021-03-28T08:09:20Z</time>
      </trkpt>
      <trkpt lat="43.67278" lon="-0.17813">
        <ele>91</ele>
        <time>2021-03-28T08:09:24Z</time>
      </trkpt>
      <trkpt lat="43.67283" lon="-0.17815">
        <ele>91</ele>
        <time>2021-03-28T08:09:28Z</time>
      </trkpt>
      <trkpt lat="43.67295" lon="-0.17823">
        <ele>91</ele>
        <time>2021-03-28T08:09:38Z</time>
      </trkpt>
      <trkpt lat="43.67301" lon="-0.1783">
        <ele>91</ele>
        <time>2021-03-28T08:09:44Z</time>
      </trkpt>
      <trkpt lat="43.67306" lon="-0.17839">
        <ele>91</ele>
        <time>2021-03-28T08:09:50Z</time>
      </trkpt>
      <trkpt lat="43.67305" lon="-0.17855">
        <ele>91</ele>
        <time>2021-03-28T08:09:59Z</time>
      </trkpt>
      <trkpt lat="43.67301" lon="-0.17879">
        <ele>91</ele>
        <time>2021-03-28T08:10:14Z</time>
      </trkpt>
      <trkpt lat="43.67298" lon="-0.17885">
        <ele>91</ele>
        <time>2021-03-28T08:10:18Z</time>
      </trkpt>
      <trkpt lat="43.67283" lon="-0.17941">
        <ele>91</ele>
        <time>2021-03-28T08:10:52Z</time>
      </trkpt>
      <trkpt lat="43.67273" lon="-0.17999">
        <ele>91</ele>
        <time>2021-03-28T08:11:25Z</time>
      </trkpt>
      <trkpt lat="43.67272" lon="-0.18005">
        <ele>91</ele>
        <time>2021-03-28T08:11:29Z</time>
      </trkpt>
      <trkpt lat="43.67269" lon="-0.18023">
        <ele>91</ele>
        <time>2021-03-28T08:11:40Z</time>
      </trkpt>
      <trkpt lat="43.67265" lon="-0.18035">
        <ele>91</ele>
        <time>2021-03-28T08:11:47Z</time>
      </trkpt>
      <trkpt lat="43.67264" lon="-0.18046">
        <ele>91</ele>
        <time>2021-03-28T08:11:54Z</time>
      </trkpt>
      <trkpt lat="43.67265" lon="-0.18055">
        <ele>91</ele>
        <time>2021-03-28T08:12:01Z</time>
      </trkpt>
      <trkpt lat="43.67264" lon="-0.18061">
        <ele>91</ele>
        <time>2021-03-28T08:12:09Z</time>
      </trkpt>
      <trkpt lat="43.67263" lon="-0.18061">
        <ele>91</ele>
        <time>2021-03-28T08:12:33Z</time>
      </trkpt>
      <trkpt lat="43.67265" lon="-0.18069">
        <ele>91</ele>
        <time>2021-03-28T08:12:50Z</time>
      </trkpt>
      <trkpt lat="43.67271" lon="-0.18073">
        <ele>91</ele>
        <time>2021-03-28T08:12:55Z</time>
      </trkpt>
      <trkpt lat="43.67282" lon="-0.1808">
        <ele>91</ele>
        <time>2021-03-28T08:13:08Z</time>
      </trkpt>
      <trkpt lat="43.67299" lon="-0.18082">
        <ele>92</ele>
        <time>2021-03-28T08:13:28Z</time>
      </trkpt>
      <trkpt lat="43.67303" lon="-0.18085">
        <ele>92</ele>
        <time>2021-03-28T08:13:31Z</time>
      </trkpt>
      <trkpt lat="43.67305" lon="-0.1809">
        <ele>92</ele>
        <time>2021-03-28T08:13:35Z</time>
      </trkpt>
      <trkpt lat="43.67305" lon="-0.18096">
        <ele>92</ele>
        <time>2021-03-28T08:13:39Z</time>
      </trkpt>
      <trkpt lat="43.67302" lon="-0.18105">
        <ele>92</ele>
        <time>2021-03-28T08:14:05Z</time>
      </trkpt>
      <trkpt lat="43.67295" lon="-0.18095">
        <ele>93</ele>
        <time>2021-03-28T08:14:20Z</time>
      </trkpt>
      <trkpt lat="43.67288" lon="-0.18093">
        <ele>93</ele>
        <time>2021-03-28T08:14:30Z</time>
      </trkpt>
      <trkpt lat="43.67283" lon="-0.18089">
        <ele>93</ele>
        <time>2021-03-28T08:14:43Z</time>
      </trkpt>
      <trkpt lat="43.67284" lon="-0.18092">
        <ele>93</ele>
        <time>2021-03-28T08:15:48Z</time>
      </trkpt>
      <trkpt lat="43.67289" lon="-0.18094">
        <ele>93</ele>
        <time>2021-03-28T08:15:52Z</time>
      </trkpt>
      <trkpt lat="43.67293" lon="-0.18092">
        <ele>93</ele>
        <time>2021-03-28T08:16:00Z</time>
      </trkpt>
      <trkpt lat="43.67296" lon="-0.18095">
        <ele>92</ele>
        <time>2021-03-28T08:16:04Z</time>
      </trkpt>
      <trkpt lat="43.67295" lon="-0.181">
        <ele>92</ele>
        <time>2021-03-28T08:16:07Z</time>
      </trkpt>
      <trkpt lat="43.67302" lon="-0.18106">
        <ele>92</ele>
        <time>2021-03-28T08:16:16Z</time>
      </trkpt>
      <trkpt lat="43.67305" lon="-0.18101">
        <ele>92</ele>
        <time>2021-03-28T08:16:28Z</time>
      </trkpt>
      <trkpt lat="43.67302" lon="-0.18125">
        <ele>92</ele>
        <time>2021-03-28T08:16:48Z</time>
      </trkpt>
      <trkpt lat="43.67294" lon="-0.18143">
        <ele>92</ele>
        <time>2021-03-28T08:17:02Z</time>
      </trkpt>
      <trkpt lat="43.67295" lon="-0.18173">
        <ele>92</ele>
        <time>2021-03-28T08:17:19Z</time>
      </trkpt>
      <trkpt lat="43.67294" lon="-0.18178">
        <ele>92</ele>
        <time>2021-03-28T08:17:22Z</time>
      </trkpt>
      <trkpt lat="43.67294" lon="-0.18184">
        <ele>92</ele>
        <time>2021-03-28T08:17:25Z</time>
      </trkpt>
      <trkpt lat="43.67294" lon="-0.18189">
        <ele>92</ele>
        <time>2021-03-28T08:17:28Z</time>
      </trkpt>
      <trkpt lat="43.67294" lon="-0.18206">
        <ele>91</ele>
        <time>2021-03-28T08:17:39Z</time>
      </trkpt>
      <trkpt lat="43.67289" lon="-0.18225">
        <ele>91</ele>
        <time>2021-03-28T08:17:51Z</time>
      </trkpt>
      <trkpt lat="43.67288" lon="-0.18231">
        <ele>91</ele>
        <time>2021-03-28T08:17:54Z</time>
      </trkpt>
      <trkpt lat="43.67289" lon="-0.18248">
        <ele>91</ele>
        <time>2021-03-28T08:18:03Z</time>
      </trkpt>
      <trkpt lat="43.67293" lon="-0.18258">
        <ele>91</ele>
        <time>2021-03-28T08:18:09Z</time>
      </trkpt>
      <trkpt lat="43.67299" lon="-0.18265">
        <ele>91</ele>
        <time>2021-03-28T08:18:15Z</time>
      </trkpt>
      <trkpt lat="43.67311" lon="-0.18277">
        <ele>91</ele>
        <time>2021-03-28T08:18:25Z</time>
      </trkpt>
      <trkpt lat="43.67317" lon="-0.18286">
        <ele>91</ele>
        <time>2021-03-28T08:18:32Z</time>
      </trkpt>
      <trkpt lat="43.67341" lon="-0.18332">
        <ele>91</ele>
        <time>2021-03-28T08:19:04Z</time>
      </trkpt>
      <trkpt lat="43.67345" lon="-0.18343">
        <ele>91</ele>
        <time>2021-03-28T08:19:11Z</time>
      </trkpt>
      <trkpt lat="43.67348" lon="-0.18368">
        <ele>91</ele>
        <time>2021-03-28T08:19:27Z</time>
      </trkpt>
      <trkpt lat="43.67351" lon="-0.18428">
        <ele>90</ele>
        <time>2021-03-28T08:20:00Z</time>
      </trkpt>
      <trkpt lat="43.67351" lon="-0.18439">
        <ele>90</ele>
        <time>2021-03-28T08:20:06Z</time>
      </trkpt>
      <trkpt lat="43.67354" lon="-0.1845">
        <ele>90</ele>
        <time>2021-03-28T08:20:13Z</time>
      </trkpt>
      <trkpt lat="43.67358" lon="-0.18472">
        <ele>90</ele>
        <time>2021-03-28T08:20:26Z</time>
      </trkpt>
      <trkpt lat="43.67364" lon="-0.1848">
        <ele>90</ele>
        <time>2021-03-28T08:20:32Z</time>
      </trkpt>
      <trkpt lat="43.67367" lon="-0.18484">
        <ele>90</ele>
        <time>2021-03-28T08:20:35Z</time>
      </trkpt>
      <trkpt lat="43.67376" lon="-0.18486">
        <ele>90</ele>
        <time>2021-03-28T08:20:42Z</time>
      </trkpt>
      <trkpt lat="43.6739" lon="-0.18484">
        <ele>90</ele>
        <time>2021-03-28T08:20:53Z</time>
      </trkpt>
      <trkpt lat="43.67411" lon="-0.18477">
        <ele>90</ele>
        <time>2021-03-28T08:21:09Z</time>
      </trkpt>
      <trkpt lat="43.67425" lon="-0.18478">
        <ele>89</ele>
        <time>2021-03-28T08:21:21Z</time>
      </trkpt>
      <trkpt lat="43.6743" lon="-0.1848">
        <ele>90</ele>
        <time>2021-03-28T08:21:30Z</time>
      </trkpt>
      <trkpt lat="43.67433" lon="-0.18486">
        <ele>90</ele>
        <time>2021-03-28T08:21:34Z</time>
      </trkpt>
      <trkpt lat="43.67438" lon="-0.18488">
        <ele>90</ele>
        <time>2021-03-28T08:21:37Z</time>
      </trkpt>
      <trkpt lat="43.67461" lon="-0.18508">
        <ele>90</ele>
        <time>2021-03-28T08:22:00Z</time>
      </trkpt>
      <trkpt lat="43.67481" lon="-0.18513">
        <ele>90</ele>
        <time>2021-03-28T08:22:15Z</time>
      </trkpt>
      <trkpt lat="43.67504" lon="-0.18507">
        <ele>90</ele>
        <time>2021-03-28T08:22:32Z</time>
      </trkpt>
      <trkpt lat="43.67524" lon="-0.18518">
        <ele>90</ele>
        <time>2021-03-28T08:22:48Z</time>
      </trkpt>
      <trkpt lat="43.67554" lon="-0.18549">
        <ele>90</ele>
        <time>2021-03-28T08:23:18Z</time>
      </trkpt>
      <trkpt lat="43.67576" lon="-0.18582">
        <ele>90</ele>
        <time>2021-03-28T08:23:43Z</time>
      </trkpt>
      <trkpt lat="43.67581" lon="-0.18592">
        <ele>90</ele>
        <time>2021-03-28T08:23:50Z</time>
      </trkpt>
      <trkpt lat="43.67583" lon="-0.18596">
        <ele>90</ele>
        <time>2021-03-28T08:23:53Z</time>
      </trkpt>
      <trkpt lat="43.67585" lon="-0.18601">
        <ele>90</ele>
        <time>2021-03-28T08:23:56Z</time>
      </trkpt>
      <trkpt lat="43.67595" lon="-0.18612">
        <ele>90</ele>
        <time>2021-03-28T08:24:07Z</time>
      </trkpt>
      <trkpt lat="43.67603" lon="-0.18615">
        <ele>91</ele>
        <time>2021-03-28T08:24:14Z</time>
      </trkpt>
      <trkpt lat="43.67623" lon="-0.18618">
        <ele>91</ele>
        <time>2021-03-28T08:24:30Z</time>
      </trkpt>
      <trkpt lat="43.67628" lon="-0.1862">
        <ele>91</ele>
        <time>2021-03-28T08:24:34Z</time>
      </trkpt>
      <trkpt lat="43.67634" lon="-0.18627">
        <ele>91</ele>
        <time>2021-03-28T08:24:40Z</time>
      </trkpt>
      <trkpt lat="43.67638" lon="-0.18637">
        <ele>91</ele>
        <time>2021-03-28T08:24:46Z</time>
      </trkpt>
      <trkpt lat="43.67657" lon="-0.18684">
        <ele>90</ele>
        <time>2021-03-28T08:25:17Z</time>
      </trkpt>
      <trkpt lat="43.67659" lon="-0.18689">
        <ele>90</ele>
        <time>2021-03-28T08:25:20Z</time>
      </trkpt>
      <trkpt lat="43.67661" lon="-0.18694">
        <ele>90</ele>
        <time>2021-03-28T08:25:23Z</time>
      </trkpt>
      <trkpt lat="43.67665" lon="-0.18703">
        <ele>90</ele>
        <time>2021-03-28T08:25:29Z</time>
      </trkpt>
      <trkpt lat="43.67666" lon="-0.18707">
        <ele>90</ele>
        <time>2021-03-28T08:25:32Z</time>
      </trkpt>
      <trkpt lat="43.67672" lon="-0.18717">
        <ele>90</ele>
        <time>2021-03-28T08:25:40Z</time>
      </trkpt>
      <trkpt lat="43.67675" lon="-0.1872">
        <ele>90</ele>
        <time>2021-03-28T08:25:44Z</time>
      </trkpt>
      <trkpt lat="43.67684" lon="-0.18724">
        <ele>90</ele>
        <time>2021-03-28T08:25:51Z</time>
      </trkpt>
      <trkpt lat="43.677" lon="-0.18726">
        <ele>91</ele>
        <time>2021-03-28T08:26:04Z</time>
      </trkpt>
      <trkpt lat="43.67713" lon="-0.18732">
        <ele>90</ele>
        <time>2021-03-28T08:26:15Z</time>
      </trkpt>
      <trkpt lat="43.67722" lon="-0.18747">
        <ele>90</ele>
        <time>2021-03-28T08:26:25Z</time>
      </trkpt>
      <trkpt lat="43.67728" lon="-0.18761">
        <ele>90</ele>
        <time>2021-03-28T08:26:34Z</time>
      </trkpt>
      <trkpt lat="43.67742" lon="-0.18786">
        <ele>90</ele>
        <time>2021-03-28T08:26:52Z</time>
      </trkpt>
      <trkpt lat="43.67747" lon="-0.18787">
        <ele>90</ele>
        <time>2021-03-28T08:26:55Z</time>
      </trkpt>
      <trkpt lat="43.67757" lon="-0.18807">
        <ele>90</ele>
        <time>2021-03-28T08:27:11Z</time>
      </trkpt>
      <trkpt lat="43.67764" lon="-0.18814">
        <ele>90</ele>
        <time>2021-03-28T08:27:17Z</time>
      </trkpt>
      <trkpt lat="43.67777" lon="-0.18836">
        <ele>91</ele>
        <time>2021-03-28T08:27:32Z</time>
      </trkpt>
      <trkpt lat="43.67791" lon="-0.18873">
        <ele>90</ele>
        <time>2021-03-28T08:27:56Z</time>
      </trkpt>
      <trkpt lat="43.67795" lon="-0.18876">
        <ele>90</ele>
        <time>2021-03-28T08:28:00Z</time>
      </trkpt>
      <trkpt lat="43.67797" lon="-0.18881">
        <ele>90</ele>
        <time>2021-03-28T08:28:04Z</time>
      </trkpt>
      <trkpt lat="43.67798" lon="-0.18886">
        <ele>90</ele>
        <time>2021-03-28T08:28:12Z</time>
      </trkpt>
      <trkpt lat="43.678" lon="-0.18891">
        <ele>90</ele>
        <time>2021-03-28T08:28:16Z</time>
      </trkpt>
      <trkpt lat="43.67803" lon="-0.1889">
        <ele>90</ele>
        <time>2021-03-28T08:28:30Z</time>
      </trkpt>
      <trkpt lat="43.67804" lon="-0.18898">
        <ele>90</ele>
        <time>2021-03-28T08:30:30Z</time>
      </trkpt>
      <trkpt lat="43.67806" lon="-0.18904">
        <ele>90</ele>
        <time>2021-03-28T08:30:50Z</time>
      </trkpt>
      <trkpt lat="43.67811" lon="-0.18907">
        <ele>90</ele>
        <time>2021-03-28T08:30:53Z</time>
      </trkpt>
      <trkpt lat="43.67815" lon="-0.18908">
        <ele>90</ele>
        <time>2021-03-28T08:30:56Z</time>
      </trkpt>
      <trkpt lat="43.67823" lon="-0.18907">
        <ele>90</ele>
        <time>2021-03-28T08:31:04Z</time>
      </trkpt>
      <trkpt lat="43.67826" lon="-0.18903">
        <ele>90</ele>
        <time>2021-03-28T08:31:12Z</time>
      </trkpt>
      <trkpt lat="43.67822" lon="-0.18902">
        <ele>89</ele>
        <time>2021-03-28T08:31:29Z</time>
      </trkpt>
      <trkpt lat="43.6782" lon="-0.18908">
        <ele>89</ele>
        <time>2021-03-28T08:31:34Z</time>
      </trkpt>
      <trkpt lat="43.67819" lon="-0.18915">
        <ele>90</ele>
        <time>2021-03-28T08:31:39Z</time>
      </trkpt>
      <trkpt lat="43.67817" lon="-0.18924">
        <ele>90</ele>
        <time>2021-03-28T08:31:47Z</time>
      </trkpt>
      <trkpt lat="43.67816" lon="-0.18924">
        <ele>90</ele>
        <time>2021-03-28T08:32:33Z</time>
      </trkpt>
      <trkpt lat="43.6782" lon="-0.18926">
        <ele>90</ele>
        <time>2021-03-28T08:32:40Z</time>
      </trkpt>
      <trkpt lat="43.67823" lon="-0.18923">
        <ele>90</ele>
        <time>2021-03-28T08:32:46Z</time>
      </trkpt>
      <trkpt lat="43.67824" lon="-0.18918">
        <ele>90</ele>
        <time>2021-03-28T08:32:49Z</time>
      </trkpt>
      <trkpt lat="43.67829" lon="-0.18907">
        <ele>89</ele>
        <time>2021-03-28T08:32:56Z</time>
      </trkpt>
      <trkpt lat="43.67836" lon="-0.18907">
        <ele>88</ele>
        <time>2021-03-28T08:33:10Z</time>
      </trkpt>
      <trkpt lat="43.67838" lon="-0.18907">
        <ele>89</ele>
        <time>2021-03-28T08:33:35Z</time>
      </trkpt>
      <trkpt lat="43.67842" lon="-0.18899">
        <ele>89</ele>
        <time>2021-03-28T08:34:00Z</time>
      </trkpt>
      <trkpt lat="43.67864" lon="-0.18885">
        <ele>89</ele>
        <time>2021-03-28T08:34:21Z</time>
      </trkpt>
      <trkpt lat="43.6787" lon="-0.18884">
        <ele>89</ele>
        <time>2021-03-28T08:34:25Z</time>
      </trkpt>
      <trkpt lat="43.67874" lon="-0.18884">
        <ele>89</ele>
        <time>2021-03-28T08:34:29Z</time>
      </trkpt>
      <trkpt lat="43.67881" lon="-0.18879">
        <ele>89</ele>
        <time>2021-03-28T08:34:35Z</time>
      </trkpt>
      <trkpt lat="43.67889" lon="-0.18878">
        <ele>89</ele>
        <time>2021-03-28T08:34:41Z</time>
      </trkpt>
      <trkpt lat="43.6791" lon="-0.18866">
        <ele>90</ele>
        <time>2021-03-28T08:34:59Z</time>
      </trkpt>
      <trkpt lat="43.67915" lon="-0.18866">
        <ele>90</ele>
        <time>2021-03-28T08:35:03Z</time>
      </trkpt>
      <trkpt lat="43.67925" lon="-0.18862">
        <ele>90</ele>
        <time>2021-03-28T08:35:12Z</time>
      </trkpt>
      <trkpt lat="43.67929" lon="-0.18864">
        <ele>90</ele>
        <time>2021-03-28T08:35:15Z</time>
      </trkpt>
      <trkpt lat="43.67933" lon="-0.18866">
        <ele>90</ele>
        <time>2021-03-28T08:35:47Z</time>
      </trkpt>
      <trkpt lat="43.67935" lon="-0.1886">
        <ele>90</ele>
        <time>2021-03-28T08:36:40Z</time>
      </trkpt>
      <trkpt lat="43.67939" lon="-0.18864">
        <ele>90</ele>
        <time>2021-03-28T08:36:52Z</time>
      </trkpt>
      <trkpt lat="43.67946" lon="-0.18858">
        <ele>90</ele>
        <time>2021-03-28T08:37:10Z</time>
      </trkpt>
      <trkpt lat="43.6795" lon="-0.18858">
        <ele>90</ele>
        <time>2021-03-28T08:37:14Z</time>
      </trkpt>
      <trkpt lat="43.67953" lon="-0.18853">
        <ele>90</ele>
        <time>2021-03-28T08:37:17Z</time>
      </trkpt>
      <trkpt lat="43.67958" lon="-0.1885">
        <ele>90</ele>
        <time>2021-03-28T08:37:21Z</time>
      </trkpt>
      <trkpt lat="43.67962" lon="-0.18849">
        <ele>90</ele>
        <time>2021-03-28T08:37:25Z</time>
      </trkpt>
      <trkpt lat="43.67967" lon="-0.18846">
        <ele>91</ele>
        <time>2021-03-28T08:37:30Z</time>
      </trkpt>
      <trkpt lat="43.67975" lon="-0.1884">
        <ele>91</ele>
        <time>2021-03-28T08:37:38Z</time>
      </trkpt>
      <trkpt lat="43.6798" lon="-0.1884">
        <ele>91</ele>
        <time>2021-03-28T08:37:42Z</time>
      </trkpt>
      <trkpt lat="43.67989" lon="-0.18837">
        <ele>91</ele>
        <time>2021-03-28T08:37:51Z</time>
      </trkpt>
      <trkpt lat="43.67994" lon="-0.18838">
        <ele>91</ele>
        <time>2021-03-28T08:37:55Z</time>
      </trkpt>
      <trkpt lat="43.68001" lon="-0.1885">
        <ele>91</ele>
        <time>2021-03-28T08:38:05Z</time>
      </trkpt>
      <trkpt lat="43.68004" lon="-0.18858">
        <ele>90</ele>
        <time>2021-03-28T08:38:11Z</time>
      </trkpt>
      <trkpt lat="43.68007" lon="-0.18868">
        <ele>90</ele>
        <time>2021-03-28T08:38:17Z</time>
      </trkpt>
      <trkpt lat="43.68009" lon="-0.18879">
        <ele>90</ele>
        <time>2021-03-28T08:38:24Z</time>
      </trkpt>
      <trkpt lat="43.68012" lon="-0.18889">
        <ele>90</ele>
        <time>2021-03-28T08:38:30Z</time>
      </trkpt>
      <trkpt lat="43.68015" lon="-0.18893">
        <ele>90</ele>
        <time>2021-03-28T08:38:33Z</time>
      </trkpt>
      <trkpt lat="43.68023" lon="-0.18916">
        <ele>90</ele>
        <time>2021-03-28T08:38:48Z</time>
      </trkpt>
      <trkpt lat="43.68033" lon="-0.18968">
        <ele>90</ele>
        <time>2021-03-28T08:39:19Z</time>
      </trkpt>
      <trkpt lat="43.68036" lon="-0.18986">
        <ele>90</ele>
        <time>2021-03-28T08:39:29Z</time>
      </trkpt>
      <trkpt lat="43.68039" lon="-0.18999">
        <ele>90</ele>
        <time>2021-03-28T08:39:37Z</time>
      </trkpt>
      <trkpt lat="43.68039" lon="-0.19012">
        <ele>90</ele>
        <time>2021-03-28T08:39:43Z</time>
      </trkpt>
      <trkpt lat="43.68042" lon="-0.19024">
        <ele>90</ele>
        <time>2021-03-28T08:39:52Z</time>
      </trkpt>
      <trkpt lat="43.68042" lon="-0.19042">
        <ele>90</ele>
        <time>2021-03-28T08:40:02Z</time>
      </trkpt>
      <trkpt lat="43.6805" lon="-0.19078">
        <ele>90</ele>
        <time>2021-03-28T08:40:25Z</time>
      </trkpt>
      <trkpt lat="43.68065" lon="-0.19121">
        <ele>90</ele>
        <time>2021-03-28T08:40:54Z</time>
      </trkpt>
      <trkpt lat="43.6807" lon="-0.19143">
        <ele>90</ele>
        <time>2021-03-28T08:41:09Z</time>
      </trkpt>
      <trkpt lat="43.6807" lon="-0.19148">
        <ele>90</ele>
        <time>2021-03-28T08:41:13Z</time>
      </trkpt>
      <trkpt lat="43.6808" lon="-0.1917">
        <ele>90</ele>
        <time>2021-03-28T08:41:27Z</time>
      </trkpt>
      <trkpt lat="43.68081" lon="-0.19176">
        <ele>90</ele>
        <time>2021-03-28T08:41:30Z</time>
      </trkpt>
      <trkpt lat="43.68083" lon="-0.19182">
        <ele>90</ele>
        <time>2021-03-28T08:41:33Z</time>
      </trkpt>
      <trkpt lat="43.68086" lon="-0.19187">
        <ele>90</ele>
        <time>2021-03-28T08:41:37Z</time>
      </trkpt>
      <trkpt lat="43.6809" lon="-0.1919">
        <ele>90</ele>
        <time>2021-03-28T08:41:40Z</time>
      </trkpt>
      <trkpt lat="43.68092" lon="-0.19194">
        <ele>90</ele>
        <time>2021-03-28T08:41:44Z</time>
      </trkpt>
      <trkpt lat="43.68096" lon="-0.19197">
        <ele>90</ele>
        <time>2021-03-28T08:41:48Z</time>
      </trkpt>
      <trkpt lat="43.68128" lon="-0.19197">
        <ele>90</ele>
        <time>2021-03-28T08:42:11Z</time>
      </trkpt>
      <trkpt lat="43.68124" lon="-0.19194">
        <ele>90</ele>
        <time>2021-03-28T08:42:15Z</time>
      </trkpt>
      <trkpt lat="43.6813" lon="-0.19193">
        <ele>90</ele>
        <time>2021-03-28T08:42:57Z</time>
      </trkpt>
      <trkpt lat="43.68134" lon="-0.19195">
        <ele>90</ele>
        <time>2021-03-28T08:43:04Z</time>
      </trkpt>
      <trkpt lat="43.68137" lon="-0.19193">
        <ele>90</ele>
        <time>2021-03-28T08:43:08Z</time>
      </trkpt>
      <trkpt lat="43.68141" lon="-0.19196">
        <ele>90</ele>
        <time>2021-03-28T08:43:11Z</time>
      </trkpt>
      <trkpt lat="43.68153" lon="-0.19196">
        <ele>90</ele>
        <time>2021-03-28T08:43:21Z</time>
      </trkpt>
      <trkpt lat="43.68191" lon="-0.19209">
        <ele>90</ele>
        <time>2021-03-28T08:43:52Z</time>
      </trkpt>
      <trkpt lat="43.6823" lon="-0.19236">
        <ele>90</ele>
        <time>2021-03-28T08:44:25Z</time>
      </trkpt>
      <trkpt lat="43.68233" lon="-0.19239">
        <ele>90</ele>
        <time>2021-03-28T08:44:28Z</time>
      </trkpt>
      <trkpt lat="43.68237" lon="-0.1924">
        <ele>90</ele>
        <time>2021-03-28T08:44:31Z</time>
      </trkpt>
      <trkpt lat="43.6824" lon="-0.19243">
        <ele>89</ele>
        <time>2021-03-28T08:44:34Z</time>
      </trkpt>
      <trkpt lat="43.68274" lon="-0.19268">
        <ele>89</ele>
        <time>2021-03-28T08:45:05Z</time>
      </trkpt>
      <trkpt lat="43.68277" lon="-0.19271">
        <ele>89</ele>
        <time>2021-03-28T08:45:08Z</time>
      </trkpt>
      <trkpt lat="43.68285" lon="-0.19275">
        <ele>89</ele>
        <time>2021-03-28T08:45:15Z</time>
      </trkpt>
      <trkpt lat="43.68288" lon="-0.19278">
        <ele>89</ele>
        <time>2021-03-28T08:45:18Z</time>
      </trkpt>
      <trkpt lat="43.68287" lon="-0.19287">
        <ele>89</ele>
        <time>2021-03-28T08:45:31Z</time>
      </trkpt>
      <trkpt lat="43.68285" lon="-0.1934">
        <ele>89</ele>
        <time>2021-03-28T08:46:03Z</time>
      </trkpt>
      <trkpt lat="43.68276" lon="-0.19395">
        <ele>89</ele>
        <time>2021-03-28T08:46:36Z</time>
      </trkpt>
      <trkpt lat="43.68271" lon="-0.19413">
        <ele>89</ele>
        <time>2021-03-28T08:46:48Z</time>
      </trkpt>
      <trkpt lat="43.6827" lon="-0.19429">
        <ele>89</ele>
        <time>2021-03-28T08:46:56Z</time>
      </trkpt>
      <trkpt lat="43.6827" lon="-0.19434">
        <ele>89</ele>
        <time>2021-03-28T08:46:59Z</time>
      </trkpt>
      <trkpt lat="43.68279" lon="-0.19486">
        <ele>89</ele>
        <time>2021-03-28T08:47:31Z</time>
      </trkpt>
      <trkpt lat="43.6828" lon="-0.19517">
        <ele>89</ele>
        <time>2021-03-28T08:47:50Z</time>
      </trkpt>
      <trkpt lat="43.68284" lon="-0.19537">
        <ele>89</ele>
        <time>2021-03-28T08:48:02Z</time>
      </trkpt>
      <trkpt lat="43.68286" lon="-0.19541">
        <ele>89</ele>
        <time>2021-03-28T08:48:05Z</time>
      </trkpt>
      <trkpt lat="43.68286" lon="-0.19545">
        <ele>89</ele>
        <time>2021-03-28T08:48:08Z</time>
      </trkpt>
      <trkpt lat="43.68286" lon="-0.19551">
        <ele>89</ele>
        <time>2021-03-28T08:48:12Z</time>
      </trkpt>
      <trkpt lat="43.68288" lon="-0.19557">
        <ele>89</ele>
        <time>2021-03-28T08:48:16Z</time>
      </trkpt>
      <trkpt lat="43.68292" lon="-0.19587">
        <ele>89</ele>
        <time>2021-03-28T08:48:36Z</time>
      </trkpt>
      <trkpt lat="43.683" lon="-0.19635">
        <ele>89</ele>
        <time>2021-03-28T08:49:07Z</time>
      </trkpt>
      <trkpt lat="43.68304" lon="-0.19672">
        <ele>89</ele>
        <time>2021-03-28T08:49:32Z</time>
      </trkpt>
      <trkpt lat="43.68304" lon="-0.19678">
        <ele>89</ele>
        <time>2021-03-28T08:49:35Z</time>
      </trkpt>
      <trkpt lat="43.68306" lon="-0.19683">
        <ele>89</ele>
        <time>2021-03-28T08:49:41Z</time>
      </trkpt>
      <trkpt lat="43.68308" lon="-0.19688">
        <ele>89</ele>
        <time>2021-03-28T08:49:44Z</time>
      </trkpt>
      <trkpt lat="43.68308" lon="-0.19693">
        <ele>89</ele>
        <time>2021-03-28T08:49:48Z</time>
      </trkpt>
      <trkpt lat="43.68306" lon="-0.19699">
        <ele>88</ele>
        <time>2021-03-28T08:49:53Z</time>
      </trkpt>
      <trkpt lat="43.68304" lon="-0.19702">
        <ele>88</ele>
        <time>2021-03-28T08:49:57Z</time>
      </trkpt>
      <trkpt lat="43.68297" lon="-0.19709">
        <ele>89</ele>
        <time>2021-03-28T08:50:06Z</time>
      </trkpt>
      <trkpt lat="43.68295" lon="-0.19714">
        <ele>88</ele>
        <time>2021-03-28T08:50:10Z</time>
      </trkpt>
      <trkpt lat="43.68297" lon="-0.19721">
        <ele>88</ele>
        <time>2021-03-28T08:50:19Z</time>
      </trkpt>
      <trkpt lat="43.683" lon="-0.1973">
        <ele>89</ele>
        <time>2021-03-28T08:50:51Z</time>
      </trkpt>
      <trkpt lat="43.68301" lon="-0.19735">
        <ele>89</ele>
        <time>2021-03-28T08:50:55Z</time>
      </trkpt>
      <trkpt lat="43.68303" lon="-0.1974">
        <ele>89</ele>
        <time>2021-03-28T08:50:58Z</time>
      </trkpt>
      <trkpt lat="43.68303" lon="-0.19744">
        <ele>88</ele>
        <time>2021-03-28T08:51:01Z</time>
      </trkpt>
      <trkpt lat="43.68322" lon="-0.19791">
        <ele>88</ele>
        <time>2021-03-28T08:51:32Z</time>
      </trkpt>
      <trkpt lat="43.68334" lon="-0.19819">
        <ele>89</ele>
        <time>2021-03-28T08:51:50Z</time>
      </trkpt>
      <trkpt lat="43.68338" lon="-0.1983">
        <ele>89</ele>
        <time>2021-03-28T08:51:57Z</time>
      </trkpt>
      <trkpt lat="43.68343" lon="-0.19839">
        <ele>89</ele>
        <time>2021-03-28T08:52:04Z</time>
      </trkpt>
      <trkpt lat="43.68356" lon="-0.19875">
        <ele>89</ele>
        <time>2021-03-28T08:52:26Z</time>
      </trkpt>
      <trkpt lat="43.68365" lon="-0.19887">
        <ele>89</ele>
        <time>2021-03-28T08:52:36Z</time>
      </trkpt>
      <trkpt lat="43.68384" lon="-0.19935">
        <ele>89</ele>
        <time>2021-03-28T08:53:08Z</time>
      </trkpt>
      <trkpt lat="43.68386" lon="-0.19939">
        <ele>89</ele>
        <time>2021-03-28T08:53:11Z</time>
      </trkpt>
      <trkpt lat="43.68404" lon="-0.19988">
        <ele>89</ele>
        <time>2021-03-28T08:53:42Z</time>
      </trkpt>
      <trkpt lat="43.68416" lon="-0.20016">
        <ele>89</ele>
        <time>2021-03-28T08:54:01Z</time>
      </trkpt>
      <trkpt lat="43.68426" lon="-0.20025">
        <ele>90</ele>
        <time>2021-03-28T08:54:12Z</time>
      </trkpt>
      <trkpt lat="43.68438" lon="-0.20024">
        <ele>90</ele>
        <time>2021-03-28T08:54:21Z</time>
      </trkpt>
      <trkpt lat="43.68452" lon="-0.2003">
        <ele>90</ele>
        <time>2021-03-28T08:54:33Z</time>
      </trkpt>
      <trkpt lat="43.68459" lon="-0.20036">
        <ele>90</ele>
        <time>2021-03-28T08:54:40Z</time>
      </trkpt>
      <trkpt lat="43.68466" lon="-0.2005">
        <ele>89</ele>
        <time>2021-03-28T08:54:49Z</time>
      </trkpt>
      <trkpt lat="43.68468" lon="-0.20055">
        <ele>89</ele>
        <time>2021-03-28T08:54:53Z</time>
      </trkpt>
      <trkpt lat="43.68472" lon="-0.20066">
        <ele>90</ele>
        <time>2021-03-28T08:55:01Z</time>
      </trkpt>
      <trkpt lat="43.68475" lon="-0.20069">
        <ele>89</ele>
        <time>2021-03-28T08:55:04Z</time>
      </trkpt>
      <trkpt lat="43.68476" lon="-0.20075">
        <ele>89</ele>
        <time>2021-03-28T08:55:07Z</time>
      </trkpt>
      <trkpt lat="43.68478" lon="-0.20084">
        <ele>89</ele>
        <time>2021-03-28T08:55:13Z</time>
      </trkpt>
      <trkpt lat="43.68482" lon="-0.20095">
        <ele>89</ele>
        <time>2021-03-28T08:55:19Z</time>
      </trkpt>
      <trkpt lat="43.68484" lon="-0.20099">
        <ele>89</ele>
        <time>2021-03-28T08:55:22Z</time>
      </trkpt>
      <trkpt lat="43.68484" lon="-0.20105">
        <ele>89</ele>
        <time>2021-03-28T08:55:25Z</time>
      </trkpt>
      <trkpt lat="43.68486" lon="-0.20109">
        <ele>89</ele>
        <time>2021-03-28T08:55:28Z</time>
      </trkpt>
      <trkpt lat="43.68487" lon="-0.20115">
        <ele>89</ele>
        <time>2021-03-28T08:55:32Z</time>
      </trkpt>
      <trkpt lat="43.68491" lon="-0.20125">
        <ele>89</ele>
        <time>2021-03-28T08:55:39Z</time>
      </trkpt>
      <trkpt lat="43.68506" lon="-0.2018">
        <ele>88</ele>
        <time>2021-03-28T08:56:12Z</time>
      </trkpt>
      <trkpt lat="43.68515" lon="-0.20216">
        <ele>88</ele>
        <time>2021-03-28T08:56:33Z</time>
      </trkpt>
      <trkpt lat="43.6853" lon="-0.20255">
        <ele>88</ele>
        <time>2021-03-28T08:56:59Z</time>
      </trkpt>
      <trkpt lat="43.68542" lon="-0.20271">
        <ele>88</ele>
        <time>2021-03-28T08:57:12Z</time>
      </trkpt>
      <trkpt lat="43.68546" lon="-0.20273">
        <ele>88</ele>
        <time>2021-03-28T08:57:15Z</time>
      </trkpt>
      <trkpt lat="43.68548" lon="-0.20275">
        <ele>87</ele>
        <time>2021-03-28T08:57:19Z</time>
      </trkpt>
      <trkpt lat="43.68575" lon="-0.2029">
        <ele>87</ele>
        <time>2021-03-28T08:57:41Z</time>
      </trkpt>
      <trkpt lat="43.68579" lon="-0.20291">
        <ele>87</ele>
        <time>2021-03-28T08:57:45Z</time>
      </trkpt>
      <trkpt lat="43.68597" lon="-0.203">
        <ele>88</ele>
        <time>2021-03-28T08:57:59Z</time>
      </trkpt>
      <trkpt lat="43.68607" lon="-0.20311">
        <ele>88</ele>
        <time>2021-03-28T08:58:09Z</time>
      </trkpt>
      <trkpt lat="43.68624" lon="-0.20318">
        <ele>88</ele>
        <time>2021-03-28T08:58:24Z</time>
      </trkpt>
      <trkpt lat="43.68628" lon="-0.20323">
        <ele>88</ele>
        <time>2021-03-28T08:58:28Z</time>
      </trkpt>
      <trkpt lat="43.6863" lon="-0.20328">
        <ele>88</ele>
        <time>2021-03-28T08:58:31Z</time>
      </trkpt>
      <trkpt lat="43.68637" lon="-0.20335">
        <ele>88</ele>
        <time>2021-03-28T08:58:37Z</time>
      </trkpt>
      <trkpt lat="43.68649" lon="-0.2034">
        <ele>88</ele>
        <time>2021-03-28T08:58:47Z</time>
      </trkpt>
      <trkpt lat="43.68654" lon="-0.20342">
        <ele>89</ele>
        <time>2021-03-28T08:58:52Z</time>
      </trkpt>
      <trkpt lat="43.68656" lon="-0.20338">
        <ele>89</ele>
        <time>2021-03-28T08:58:56Z</time>
      </trkpt>
      <trkpt lat="43.6866" lon="-0.2034">
        <ele>89</ele>
        <time>2021-03-28T08:59:02Z</time>
      </trkpt>
      <trkpt lat="43.68673" lon="-0.20349">
        <ele>89</ele>
        <time>2021-03-28T08:59:15Z</time>
      </trkpt>
      <trkpt lat="43.68691" lon="-0.20354">
        <ele>88</ele>
        <time>2021-03-28T08:59:35Z</time>
      </trkpt>
      <trkpt lat="43.68696" lon="-0.20358">
        <ele>88</ele>
        <time>2021-03-28T08:59:39Z</time>
      </trkpt>
      <trkpt lat="43.68722" lon="-0.20372">
        <ele>88</ele>
        <time>2021-03-28T09:00:04Z</time>
      </trkpt>
      <trkpt lat="43.68734" lon="-0.20385">
        <ele>88</ele>
        <time>2021-03-28T09:00:19Z</time>
      </trkpt>
      <trkpt lat="43.68739" lon="-0.20387">
        <ele>88</ele>
        <time>2021-03-28T09:00:23Z</time>
      </trkpt>
      <trkpt lat="43.68741" lon="-0.20392">
        <ele>88</ele>
        <time>2021-03-28T09:00:26Z</time>
      </trkpt>
      <trkpt lat="43.68744" lon="-0.20395">
        <ele>88</ele>
        <time>2021-03-28T09:00:30Z</time>
      </trkpt>
      <trkpt lat="43.68749" lon="-0.20396">
        <ele>88</ele>
        <time>2021-03-28T09:00:44Z</time>
      </trkpt>
      <trkpt lat="43.68754" lon="-0.20397">
        <ele>88</ele>
        <time>2021-03-28T09:00:48Z</time>
      </trkpt>
      <trkpt lat="43.68758" lon="-0.204">
        <ele>88</ele>
        <time>2021-03-28T09:00:52Z</time>
      </trkpt>
      <trkpt lat="43.68764" lon="-0.20402">
        <ele>88</ele>
        <time>2021-03-28T09:01:07Z</time>
      </trkpt>
      <trkpt lat="43.68783" lon="-0.20411">
        <ele>88</ele>
        <time>2021-03-28T09:01:36Z</time>
      </trkpt>
      <trkpt lat="43.68787" lon="-0.20415">
        <ele>87</ele>
        <time>2021-03-28T09:02:07Z</time>
      </trkpt>
      <trkpt lat="43.68794" lon="-0.20424">
        <ele>87</ele>
        <time>2021-03-28T09:02:17Z</time>
      </trkpt>
      <trkpt lat="43.68803" lon="-0.20429">
        <ele>87</ele>
        <time>2021-03-28T09:02:23Z</time>
      </trkpt>
      <trkpt lat="43.68806" lon="-0.20433">
        <ele>87</ele>
        <time>2021-03-28T09:02:27Z</time>
      </trkpt>
      <trkpt lat="43.68843" lon="-0.20457">
        <ele>88</ele>
        <time>2021-03-28T09:03:00Z</time>
      </trkpt>
      <trkpt lat="43.68869" lon="-0.20478">
        <ele>88</ele>
        <time>2021-03-28T09:03:22Z</time>
      </trkpt>
      <trkpt lat="43.68873" lon="-0.20479">
        <ele>88</ele>
        <time>2021-03-28T09:03:24Z</time>
      </trkpt>
      <trkpt lat="43.68884" lon="-0.20487">
        <ele>88</ele>
        <time>2021-03-28T09:03:34Z</time>
      </trkpt>
      <trkpt lat="43.68889" lon="-0.20487">
        <ele>88</ele>
        <time>2021-03-28T09:03:38Z</time>
      </trkpt>
      <trkpt lat="43.68893" lon="-0.20488">
        <ele>88</ele>
        <time>2021-03-28T09:03:41Z</time>
      </trkpt>
      <trkpt lat="43.68916" lon="-0.20504">
        <ele>88</ele>
        <time>2021-03-28T09:04:00Z</time>
      </trkpt>
      <trkpt lat="43.68931" lon="-0.20512">
        <ele>88</ele>
        <time>2021-03-28T09:04:12Z</time>
      </trkpt>
      <trkpt lat="43.68937" lon="-0.20518">
        <ele>88</ele>
        <time>2021-03-28T09:04:19Z</time>
      </trkpt>
      <trkpt lat="43.68945" lon="-0.20522">
        <ele>88</ele>
        <time>2021-03-28T09:04:26Z</time>
      </trkpt>
      <trkpt lat="43.68954" lon="-0.2053">
        <ele>88</ele>
        <time>2021-03-28T09:04:35Z</time>
      </trkpt>
      <trkpt lat="43.68984" lon="-0.20548">
        <ele>88</ele>
        <time>2021-03-28T09:05:00Z</time>
      </trkpt>
      <trkpt lat="43.68989" lon="-0.20549">
        <ele>88</ele>
        <time>2021-03-28T09:05:03Z</time>
      </trkpt>
      <trkpt lat="43.69013" lon="-0.20572">
        <ele>88</ele>
        <time>2021-03-28T09:05:27Z</time>
      </trkpt>
      <trkpt lat="43.69016" lon="-0.20576">
        <ele>88</ele>
        <time>2021-03-28T09:05:30Z</time>
      </trkpt>
      <trkpt lat="43.6902" lon="-0.2058">
        <ele>88</ele>
        <time>2021-03-28T09:05:34Z</time>
      </trkpt>
      <trkpt lat="43.69039" lon="-0.20607">
        <ele>88</ele>
        <time>2021-03-28T09:05:55Z</time>
      </trkpt>
      <trkpt lat="43.6907" lon="-0.20644">
        <ele>88</ele>
        <time>2021-03-28T09:06:27Z</time>
      </trkpt>
      <trkpt lat="43.69099" lon="-0.20684">
        <ele>88</ele>
        <time>2021-03-28T09:07:00Z</time>
      </trkpt>
      <trkpt lat="43.69128" lon="-0.20723">
        <ele>88</ele>
        <time>2021-03-28T09:07:31Z</time>
      </trkpt>
      <trkpt lat="43.69151" lon="-0.20755">
        <ele>87</ele>
        <time>2021-03-28T09:07:58Z</time>
      </trkpt>
      <trkpt lat="43.6917" lon="-0.20777">
        <ele>87</ele>
        <time>2021-03-28T09:08:18Z</time>
      </trkpt>
      <trkpt lat="43.69175" lon="-0.20785">
        <ele>87</ele>
        <time>2021-03-28T09:08:24Z</time>
      </trkpt>
      <trkpt lat="43.69181" lon="-0.20792">
        <ele>87</ele>
        <time>2021-03-28T09:08:30Z</time>
      </trkpt>
      <trkpt lat="43.69184" lon="-0.20796">
        <ele>87</ele>
        <time>2021-03-28T09:08:33Z</time>
      </trkpt>
      <trkpt lat="43.6919" lon="-0.20802">
        <ele>87</ele>
        <time>2021-03-28T09:08:39Z</time>
      </trkpt>
      <trkpt lat="43.69192" lon="-0.20806">
        <ele>87</ele>
        <time>2021-03-28T09:08:42Z</time>
      </trkpt>
      <trkpt lat="43.69195" lon="-0.20807">
        <ele>87</ele>
        <time>2021-03-28T09:08:45Z</time>
      </trkpt>
      <trkpt lat="43.69207" lon="-0.20805">
        <ele>88</ele>
        <time>2021-03-28T09:08:55Z</time>
      </trkpt>
      <trkpt lat="43.6921" lon="-0.20802">
        <ele>88</ele>
        <time>2021-03-28T09:08:58Z</time>
      </trkpt>
      <trkpt lat="43.69221" lon="-0.20795">
        <ele>88</ele>
        <time>2021-03-28T09:09:08Z</time>
      </trkpt>
      <trkpt lat="43.69248" lon="-0.20779">
        <ele>88</ele>
        <time>2021-03-28T09:09:31Z</time>
      </trkpt>
      <trkpt lat="43.69285" lon="-0.20757">
        <ele>88</ele>
        <time>2021-03-28T09:10:03Z</time>
      </trkpt>
      <trkpt lat="43.69312" lon="-0.20742">
        <ele>88</ele>
        <time>2021-03-28T09:10:26Z</time>
      </trkpt>
      <trkpt lat="43.69315" lon="-0.20741">
        <ele>88</ele>
        <time>2021-03-28T09:10:29Z</time>
      </trkpt>
      <trkpt lat="43.69348" lon="-0.20722">
        <ele>88</ele>
        <time>2021-03-28T09:10:59Z</time>
      </trkpt>
      <trkpt lat="43.69351" lon="-0.20726">
        <ele>87</ele>
        <time>2021-03-28T09:11:07Z</time>
      </trkpt>
      <trkpt lat="43.69355" lon="-0.2073">
        <ele>88</ele>
        <time>2021-03-28T09:12:35Z</time>
      </trkpt>
      <trkpt lat="43.6936" lon="-0.20734">
        <ele>87</ele>
        <time>2021-03-28T09:12:59Z</time>
      </trkpt>
      <trkpt lat="43.69368" lon="-0.20748">
        <ele>86</ele>
        <time>2021-03-28T09:13:11Z</time>
      </trkpt>
      <trkpt lat="43.69393" lon="-0.20786">
        <ele>87</ele>
        <time>2021-03-28T09:13:40Z</time>
      </trkpt>
      <trkpt lat="43.69395" lon="-0.20791">
        <ele>87</ele>
        <time>2021-03-28T09:13:43Z</time>
      </trkpt>
      <trkpt lat="43.69415" lon="-0.20821">
        <ele>87</ele>
        <time>2021-03-28T09:14:07Z</time>
      </trkpt>
      <trkpt lat="43.69417" lon="-0.2083">
        <ele>87</ele>
        <time>2021-03-28T09:14:12Z</time>
      </trkpt>
      <trkpt lat="43.69424" lon="-0.2085">
        <ele>87</ele>
        <time>2021-03-28T09:14:24Z</time>
      </trkpt>
      <trkpt lat="43.69428" lon="-0.20875">
        <ele>87</ele>
        <time>2021-03-28T09:14:40Z</time>
      </trkpt>
      <trkpt lat="43.69431" lon="-0.20879">
        <ele>88</ele>
        <time>2021-03-28T09:14:43Z</time>
      </trkpt>
      <trkpt lat="43.69433" lon="-0.20895">
        <ele>88</ele>
        <time>2021-03-28T09:14:52Z</time>
      </trkpt>
      <trkpt lat="43.69438" lon="-0.20914">
        <ele>87</ele>
        <time>2021-03-28T09:15:04Z</time>
      </trkpt>
      <trkpt lat="43.69448" lon="-0.20968">
        <ele>88</ele>
        <time>2021-03-28T09:15:35Z</time>
      </trkpt>
      <trkpt lat="43.6945" lon="-0.20974">
        <ele>88</ele>
        <time>2021-03-28T09:15:38Z</time>
      </trkpt>
      <trkpt lat="43.69462" lon="-0.21028">
        <ele>88</ele>
        <time>2021-03-28T09:16:11Z</time>
      </trkpt>
      <trkpt lat="43.69468" lon="-0.21054">
        <ele>88</ele>
        <time>2021-03-28T09:16:26Z</time>
      </trkpt>
      <trkpt lat="43.69468" lon="-0.21059">
        <ele>88</ele>
        <time>2021-03-28T09:16:29Z</time>
      </trkpt>
      <trkpt lat="43.6947" lon="-0.21069">
        <ele>89</ele>
        <time>2021-03-28T09:16:35Z</time>
      </trkpt>
      <trkpt lat="43.69472" lon="-0.21073">
        <ele>89</ele>
        <time>2021-03-28T09:16:38Z</time>
      </trkpt>
      <trkpt lat="43.69473" lon="-0.21078">
        <ele>89</ele>
        <time>2021-03-28T09:16:42Z</time>
      </trkpt>
      <trkpt lat="43.69475" lon="-0.21083">
        <ele>89</ele>
        <time>2021-03-28T09:16:45Z</time>
      </trkpt>
      <trkpt lat="43.69476" lon="-0.21088">
        <ele>89</ele>
        <time>2021-03-28T09:16:49Z</time>
      </trkpt>
      <trkpt lat="43.69478" lon="-0.21102">
        <ele>88</ele>
        <time>2021-03-28T09:16:58Z</time>
      </trkpt>
      <trkpt lat="43.69482" lon="-0.21129">
        <ele>88</ele>
        <time>2021-03-28T09:17:13Z</time>
      </trkpt>
      <trkpt lat="43.69484" lon="-0.2114">
        <ele>88</ele>
        <time>2021-03-28T09:17:19Z</time>
      </trkpt>
      <trkpt lat="43.69485" lon="-0.21151">
        <ele>88</ele>
        <time>2021-03-28T09:17:25Z</time>
      </trkpt>
      <trkpt lat="43.69489" lon="-0.21165">
        <ele>88</ele>
        <time>2021-03-28T09:17:34Z</time>
      </trkpt>
      <trkpt lat="43.69491" lon="-0.21186">
        <ele>88</ele>
        <time>2021-03-28T09:17:46Z</time>
      </trkpt>
      <trkpt lat="43.69496" lon="-0.21201">
        <ele>88</ele>
        <time>2021-03-28T09:17:55Z</time>
      </trkpt>
      <trkpt lat="43.69499" lon="-0.21222">
        <ele>88</ele>
        <time>2021-03-28T09:18:07Z</time>
      </trkpt>
      <trkpt lat="43.69502" lon="-0.21231">
        <ele>88</ele>
        <time>2021-03-28T09:18:13Z</time>
      </trkpt>
      <trkpt lat="43.69509" lon="-0.21269">
        <ele>87</ele>
        <time>2021-03-28T09:18:36Z</time>
      </trkpt>
      <trkpt lat="43.69511" lon="-0.21272">
        <ele>87</ele>
        <time>2021-03-28T09:18:39Z</time>
      </trkpt>
      <trkpt lat="43.69513" lon="-0.21283">
        <ele>87</ele>
        <time>2021-03-28T09:18:45Z</time>
      </trkpt>
      <trkpt lat="43.69514" lon="-0.21294">
        <ele>87</ele>
        <time>2021-03-28T09:18:51Z</time>
      </trkpt>
      <trkpt lat="43.69516" lon="-0.213">
        <ele>87</ele>
        <time>2021-03-28T09:18:53Z</time>
      </trkpt>
      <trkpt lat="43.69516" lon="-0.21305">
        <ele>87</ele>
        <time>2021-03-28T09:18:56Z</time>
      </trkpt>
      <trkpt lat="43.69527" lon="-0.21357">
        <ele>87</ele>
        <time>2021-03-28T09:19:27Z</time>
      </trkpt>
      <trkpt lat="43.69538" lon="-0.2141">
        <ele>87</ele>
        <time>2021-03-28T09:19:58Z</time>
      </trkpt>
      <trkpt lat="43.69543" lon="-0.21431">
        <ele>87</ele>
        <time>2021-03-28T09:20:11Z</time>
      </trkpt>
      <trkpt lat="43.69545" lon="-0.21436">
        <ele>87</ele>
        <time>2021-03-28T09:20:15Z</time>
      </trkpt>
      <trkpt lat="43.69546" lon="-0.21443">
        <ele>87</ele>
        <time>2021-03-28T09:20:19Z</time>
      </trkpt>
      <trkpt lat="43.69548" lon="-0.21447">
        <ele>87</ele>
        <time>2021-03-28T09:20:22Z</time>
      </trkpt>
      <trkpt lat="43.69549" lon="-0.21453">
        <ele>87</ele>
        <time>2021-03-28T09:20:25Z</time>
      </trkpt>
      <trkpt lat="43.69551" lon="-0.21458">
        <ele>87</ele>
        <time>2021-03-28T09:20:28Z</time>
      </trkpt>
      <trkpt lat="43.69551" lon="-0.21465">
        <ele>87</ele>
        <time>2021-03-28T09:20:32Z</time>
      </trkpt>
      <trkpt lat="43.69553" lon="-0.21476">
        <ele>87</ele>
        <time>2021-03-28T09:20:39Z</time>
      </trkpt>
      <trkpt lat="43.69564" lon="-0.21531">
        <ele>87</ele>
        <time>2021-03-28T09:21:11Z</time>
      </trkpt>
      <trkpt lat="43.69575" lon="-0.21584">
        <ele>87</ele>
        <time>2021-03-28T09:21:43Z</time>
      </trkpt>
      <trkpt lat="43.69586" lon="-0.21634">
        <ele>87</ele>
        <time>2021-03-28T09:22:14Z</time>
      </trkpt>
      <trkpt lat="43.69589" lon="-0.21653">
        <ele>87</ele>
        <time>2021-03-28T09:22:25Z</time>
      </trkpt>
      <trkpt lat="43.69598" lon="-0.21692">
        <ele>87</ele>
        <time>2021-03-28T09:22:49Z</time>
      </trkpt>
      <trkpt lat="43.69604" lon="-0.21724">
        <ele>87</ele>
        <time>2021-03-28T09:23:07Z</time>
      </trkpt>
      <trkpt lat="43.69604" lon="-0.21729">
        <ele>87</ele>
        <time>2021-03-28T09:23:10Z</time>
      </trkpt>
      <trkpt lat="43.69606" lon="-0.2174">
        <ele>87</ele>
        <time>2021-03-28T09:23:16Z</time>
      </trkpt>
      <trkpt lat="43.69609" lon="-0.21754">
        <ele>87</ele>
        <time>2021-03-28T09:23:57Z</time>
      </trkpt>
      <trkpt lat="43.69616" lon="-0.21783">
        <ele>86</ele>
        <time>2021-03-28T09:24:15Z</time>
      </trkpt>
      <trkpt lat="43.69626" lon="-0.21816">
        <ele>86</ele>
        <time>2021-03-28T09:24:37Z</time>
      </trkpt>
      <trkpt lat="43.69629" lon="-0.21839">
        <ele>87</ele>
        <time>2021-03-28T09:24:53Z</time>
      </trkpt>
      <trkpt lat="43.69632" lon="-0.21841">
        <ele>87</ele>
        <time>2021-03-28T09:25:08Z</time>
      </trkpt>
      <trkpt lat="43.69633" lon="-0.21858">
        <ele>87</ele>
        <time>2021-03-28T09:25:36Z</time>
      </trkpt>
      <trkpt lat="43.69633" lon="-0.21865">
        <ele>87</ele>
        <time>2021-03-28T09:25:41Z</time>
      </trkpt>
      <trkpt lat="43.69641" lon="-0.21899">
        <ele>87</ele>
        <time>2021-03-28T09:26:01Z</time>
      </trkpt>
      <trkpt lat="43.69643" lon="-0.21903">
        <ele>87</ele>
        <time>2021-03-28T09:26:04Z</time>
      </trkpt>
      <trkpt lat="43.69646" lon="-0.21921">
        <ele>87</ele>
        <time>2021-03-28T09:26:15Z</time>
      </trkpt>
      <trkpt lat="43.69647" lon="-0.21926">
        <ele>87</ele>
        <time>2021-03-28T09:26:18Z</time>
      </trkpt>
      <trkpt lat="43.69648" lon="-0.21931">
        <ele>87</ele>
        <time>2021-03-28T09:26:21Z</time>
      </trkpt>
      <trkpt lat="43.69655" lon="-0.21954">
        <ele>87</ele>
        <time>2021-03-28T09:26:36Z</time>
      </trkpt>
      <trkpt lat="43.69665" lon="-0.22007">
        <ele>87</ele>
        <time>2021-03-28T09:27:08Z</time>
      </trkpt>
      <trkpt lat="43.69666" lon="-0.22015">
        <ele>87</ele>
        <time>2021-03-28T09:27:13Z</time>
      </trkpt>
      <trkpt lat="43.69677" lon="-0.22061">
        <ele>87</ele>
        <time>2021-03-28T09:27:44Z</time>
      </trkpt>
      <trkpt lat="43.6968" lon="-0.22065">
        <ele>87</ele>
        <time>2021-03-28T09:27:48Z</time>
      </trkpt>
      <trkpt lat="43.69679" lon="-0.2207">
        <ele>86</ele>
        <time>2021-03-28T09:28:02Z</time>
      </trkpt>
      <trkpt lat="43.69684" lon="-0.22102">
        <ele>87</ele>
        <time>2021-03-28T09:28:21Z</time>
      </trkpt>
      <trkpt lat="43.69687" lon="-0.22113">
        <ele>87</ele>
        <time>2021-03-28T09:28:28Z</time>
      </trkpt>
      <trkpt lat="43.69689" lon="-0.22118">
        <ele>87</ele>
        <time>2021-03-28T09:28:31Z</time>
      </trkpt>
      <trkpt lat="43.69699" lon="-0.22171">
        <ele>87</ele>
        <time>2021-03-28T09:29:03Z</time>
      </trkpt>
      <trkpt lat="43.69704" lon="-0.22192">
        <ele>87</ele>
        <time>2021-03-28T09:29:17Z</time>
      </trkpt>
      <trkpt lat="43.69705" lon="-0.22204">
        <ele>87</ele>
        <time>2021-03-28T09:29:24Z</time>
      </trkpt>
      <trkpt lat="43.69707" lon="-0.22209">
        <ele>87</ele>
        <time>2021-03-28T09:29:27Z</time>
      </trkpt>
      <trkpt lat="43.69707" lon="-0.22215">
        <ele>87</ele>
        <time>2021-03-28T09:29:30Z</time>
      </trkpt>
      <trkpt lat="43.6971" lon="-0.22225">
        <ele>86</ele>
        <time>2021-03-28T09:29:36Z</time>
      </trkpt>
      <trkpt lat="43.69712" lon="-0.22237">
        <ele>86</ele>
        <time>2021-03-28T09:29:43Z</time>
      </trkpt>
      <trkpt lat="43.6972" lon="-0.22263">
        <ele>86</ele>
        <time>2021-03-28T09:30:00Z</time>
      </trkpt>
      <trkpt lat="43.69721" lon="-0.22269">
        <ele>86</ele>
        <time>2021-03-28T09:30:04Z</time>
      </trkpt>
      <trkpt lat="43.69726" lon="-0.22288">
        <ele>86</ele>
        <time>2021-03-28T09:30:17Z</time>
      </trkpt>
      <trkpt lat="43.69733" lon="-0.22326">
        <ele>86</ele>
        <time>2021-03-28T09:30:40Z</time>
      </trkpt>
      <trkpt lat="43.69736" lon="-0.22337">
        <ele>86</ele>
        <time>2021-03-28T09:30:47Z</time>
      </trkpt>
      <trkpt lat="43.69739" lon="-0.22358">
        <ele>86</ele>
        <time>2021-03-28T09:31:00Z</time>
      </trkpt>
      <trkpt lat="43.69748" lon="-0.22391">
        <ele>86</ele>
        <time>2021-03-28T09:31:21Z</time>
      </trkpt>
      <trkpt lat="43.69749" lon="-0.22399">
        <ele>86</ele>
        <time>2021-03-28T09:31:27Z</time>
      </trkpt>
      <trkpt lat="43.69751" lon="-0.22405">
        <ele>86</ele>
        <time>2021-03-28T09:31:31Z</time>
      </trkpt>
      <trkpt lat="43.69762" lon="-0.22457">
        <ele>86</ele>
        <time>2021-03-28T09:32:04Z</time>
      </trkpt>
      <trkpt lat="43.6977" lon="-0.22498">
        <ele>85</ele>
        <time>2021-03-28T09:32:30Z</time>
      </trkpt>
      <trkpt lat="43.69773" lon="-0.22504">
        <ele>85</ele>
        <time>2021-03-28T09:32:34Z</time>
      </trkpt>
      <trkpt lat="43.69773" lon="-0.22516">
        <ele>85</ele>
        <time>2021-03-28T09:32:41Z</time>
      </trkpt>
      <trkpt lat="43.69779" lon="-0.22537">
        <ele>85</ele>
        <time>2021-03-28T09:32:57Z</time>
      </trkpt>
      <trkpt lat="43.69781" lon="-0.22548">
        <ele>85</ele>
        <time>2021-03-28T09:33:05Z</time>
      </trkpt>
      <trkpt lat="43.69786" lon="-0.22562">
        <ele>85</ele>
        <time>2021-03-28T09:33:15Z</time>
      </trkpt>
      <trkpt lat="43.69787" lon="-0.22568">
        <ele>85</ele>
        <time>2021-03-28T09:33:19Z</time>
      </trkpt>
      <trkpt lat="43.69788" lon="-0.22573">
        <ele>85</ele>
        <time>2021-03-28T09:33:23Z</time>
      </trkpt>
      <trkpt lat="43.69789" lon="-0.22578">
        <ele>85</ele>
        <time>2021-03-28T09:33:27Z</time>
      </trkpt>
      <trkpt lat="43.6979" lon="-0.22585">
        <ele>85</ele>
        <time>2021-03-28T09:33:40Z</time>
      </trkpt>
      <trkpt lat="43.69795" lon="-0.22604">
        <ele>85</ele>
        <time>2021-03-28T09:33:52Z</time>
      </trkpt>
      <trkpt lat="43.69796" lon="-0.22614">
        <ele>85</ele>
        <time>2021-03-28T09:33:58Z</time>
      </trkpt>
      <trkpt lat="43.69801" lon="-0.22635">
        <ele>85</ele>
        <time>2021-03-28T09:34:11Z</time>
      </trkpt>
      <trkpt lat="43.69805" lon="-0.22659">
        <ele>85</ele>
        <time>2021-03-28T09:34:25Z</time>
      </trkpt>
      <trkpt lat="43.69812" lon="-0.22686">
        <ele>85</ele>
        <time>2021-03-28T09:34:41Z</time>
      </trkpt>
      <trkpt lat="43.69814" lon="-0.22701">
        <ele>85</ele>
        <time>2021-03-28T09:34:50Z</time>
      </trkpt>
      <trkpt lat="43.6982" lon="-0.2272">
        <ele>85</ele>
        <time>2021-03-28T09:35:02Z</time>
      </trkpt>
      <trkpt lat="43.69823" lon="-0.22736">
        <ele>85</ele>
        <time>2021-03-28T09:35:12Z</time>
      </trkpt>
      <trkpt lat="43.69825" lon="-0.22741">
        <ele>85</ele>
        <time>2021-03-28T09:35:15Z</time>
      </trkpt>
      <trkpt lat="43.69826" lon="-0.22751">
        <ele>85</ele>
        <time>2021-03-28T09:35:21Z</time>
      </trkpt>
      <trkpt lat="43.69828" lon="-0.22755">
        <ele>85</ele>
        <time>2021-03-28T09:35:24Z</time>
      </trkpt>
      <trkpt lat="43.69828" lon="-0.2276">
        <ele>85</ele>
        <time>2021-03-28T09:35:27Z</time>
      </trkpt>
      <trkpt lat="43.69838" lon="-0.22795">
        <ele>85</ele>
        <time>2021-03-28T09:35:49Z</time>
      </trkpt>
      <trkpt lat="43.69838" lon="-0.228">
        <ele>85</ele>
        <time>2021-03-28T09:35:52Z</time>
      </trkpt>
      <trkpt lat="43.69844" lon="-0.22826">
        <ele>85</ele>
        <time>2021-03-28T09:36:08Z</time>
      </trkpt>
      <trkpt lat="43.69846" lon="-0.2283">
        <ele>85</ele>
        <time>2021-03-28T09:36:11Z</time>
      </trkpt>
      <trkpt lat="43.69854" lon="-0.22875">
        <ele>85</ele>
        <time>2021-03-28T09:36:38Z</time>
      </trkpt>
      <trkpt lat="43.69856" lon="-0.2288">
        <ele>85</ele>
        <time>2021-03-28T09:36:42Z</time>
      </trkpt>
      <trkpt lat="43.69857" lon="-0.22886">
        <ele>85</ele>
        <time>2021-03-28T09:36:45Z</time>
      </trkpt>
      <trkpt lat="43.69865" lon="-0.22922">
        <ele>84</ele>
        <time>2021-03-28T09:37:08Z</time>
      </trkpt>
      <trkpt lat="43.69865" lon="-0.22928">
        <ele>84</ele>
        <time>2021-03-28T09:37:11Z</time>
      </trkpt>
      <trkpt lat="43.69874" lon="-0.22962">
        <ele>84</ele>
        <time>2021-03-28T09:37:32Z</time>
      </trkpt>
      <trkpt lat="43.69874" lon="-0.22967">
        <ele>84</ele>
        <time>2021-03-28T09:37:35Z</time>
      </trkpt>
      <trkpt lat="43.69886" lon="-0.2302">
        <ele>84</ele>
        <time>2021-03-28T09:38:06Z</time>
      </trkpt>
      <trkpt lat="43.6989" lon="-0.23041">
        <ele>84</ele>
        <time>2021-03-28T09:38:18Z</time>
      </trkpt>
      <trkpt lat="43.69894" lon="-0.23049">
        <ele>84</ele>
        <time>2021-03-28T09:38:24Z</time>
      </trkpt>
      <trkpt lat="43.69905" lon="-0.231">
        <ele>84</ele>
        <time>2021-03-28T09:38:55Z</time>
      </trkpt>
      <trkpt lat="43.69915" lon="-0.23148">
        <ele>84</ele>
        <time>2021-03-28T09:39:26Z</time>
      </trkpt>
      <trkpt lat="43.69922" lon="-0.2318">
        <ele>84</ele>
        <time>2021-03-28T09:39:46Z</time>
      </trkpt>
      <trkpt lat="43.69925" lon="-0.23186">
        <ele>84</ele>
        <time>2021-03-28T09:39:50Z</time>
      </trkpt>
      <trkpt lat="43.69925" lon="-0.23192">
        <ele>84</ele>
        <time>2021-03-28T09:39:55Z</time>
      </trkpt>
      <trkpt lat="43.69932" lon="-0.23217">
        <ele>84</ele>
        <time>2021-03-28T09:40:11Z</time>
      </trkpt>
      <trkpt lat="43.69933" lon="-0.2323">
        <ele>84</ele>
        <time>2021-03-28T09:40:18Z</time>
      </trkpt>
      <trkpt lat="43.69933" lon="-0.23238">
        <ele>84</ele>
        <time>2021-03-28T09:40:22Z</time>
      </trkpt>
      <trkpt lat="43.69936" lon="-0.2325">
        <ele>85</ele>
        <time>2021-03-28T09:40:33Z</time>
      </trkpt>
      <trkpt lat="43.69941" lon="-0.23256">
        <ele>85</ele>
        <time>2021-03-28T09:40:38Z</time>
      </trkpt>
      <trkpt lat="43.69947" lon="-0.23263">
        <ele>85</ele>
        <time>2021-03-28T09:40:46Z</time>
      </trkpt>
      <trkpt lat="43.69954" lon="-0.23269">
        <ele>85</ele>
        <time>2021-03-28T09:40:53Z</time>
      </trkpt>
      <trkpt lat="43.6996" lon="-0.23275">
        <ele>85</ele>
        <time>2021-03-28T09:40:59Z</time>
      </trkpt>
      <trkpt lat="43.69968" lon="-0.2328">
        <ele>85</ele>
        <time>2021-03-28T09:41:07Z</time>
      </trkpt>
      <trkpt lat="43.69976" lon="-0.23289">
        <ele>85</ele>
        <time>2021-03-28T09:41:17Z</time>
      </trkpt>
      <trkpt lat="43.69982" lon="-0.2329">
        <ele>85</ele>
        <time>2021-03-28T09:41:26Z</time>
      </trkpt>
      <trkpt lat="43.69986" lon="-0.23291">
        <ele>85</ele>
        <time>2021-03-28T09:41:35Z</time>
      </trkpt>
      <trkpt lat="43.69993" lon="-0.23297">
        <ele>85</ele>
        <time>2021-03-28T09:42:34Z</time>
      </trkpt>
      <trkpt lat="43.69997" lon="-0.23304">
        <ele>85</ele>
        <time>2021-03-28T09:42:46Z</time>
      </trkpt>
      <trkpt lat="43.7" lon="-0.23306">
        <ele>84</ele>
        <time>2021-03-28T09:42:50Z</time>
      </trkpt>
      <trkpt lat="43.70011" lon="-0.23318">
        <ele>84</ele>
        <time>2021-03-28T09:43:01Z</time>
      </trkpt>
      <trkpt lat="43.70028" lon="-0.23334">
        <ele>83</ele>
        <time>2021-03-28T09:43:18Z</time>
      </trkpt>
      <trkpt lat="43.70031" lon="-0.23335">
        <ele>83</ele>
        <time>2021-03-28T09:43:21Z</time>
      </trkpt>
      <trkpt lat="43.70045" lon="-0.23351">
        <ele>83</ele>
        <time>2021-03-28T09:43:36Z</time>
      </trkpt>
      <trkpt lat="43.70048" lon="-0.23353">
        <ele>83</ele>
        <time>2021-03-28T09:43:39Z</time>
      </trkpt>
      <trkpt lat="43.70051" lon="-0.23357">
        <ele>83</ele>
        <time>2021-03-28T09:43:43Z</time>
      </trkpt>
      <trkpt lat="43.70057" lon="-0.2336">
        <ele>83</ele>
        <time>2021-03-28T09:43:49Z</time>
      </trkpt>
      <trkpt lat="43.70065" lon="-0.23369">
        <ele>83</ele>
        <time>2021-03-28T09:43:57Z</time>
      </trkpt>
      <trkpt lat="43.70071" lon="-0.23371">
        <ele>83</ele>
        <time>2021-03-28T09:44:03Z</time>
      </trkpt>
      <trkpt lat="43.70089" lon="-0.23388">
        <ele>83</ele>
        <time>2021-03-28T09:44:20Z</time>
      </trkpt>
      <trkpt lat="43.70093" lon="-0.2339">
        <ele>83</ele>
        <time>2021-03-28T09:44:23Z</time>
      </trkpt>
      <trkpt lat="43.70097" lon="-0.23394">
        <ele>84</ele>
        <time>2021-03-28T09:44:26Z</time>
      </trkpt>
      <trkpt lat="43.70101" lon="-0.23402">
        <ele>84</ele>
        <time>2021-03-28T09:44:33Z</time>
      </trkpt>
      <trkpt lat="43.7012" lon="-0.23418">
        <ele>83</ele>
        <time>2021-03-28T09:45:03Z</time>
      </trkpt>
      <trkpt lat="43.70123" lon="-0.23417">
        <ele>83</ele>
        <time>2021-03-28T09:45:06Z</time>
      </trkpt>
      <trkpt lat="43.70127" lon="-0.23418">
        <ele>83</ele>
        <time>2021-03-28T09:45:10Z</time>
      </trkpt>
      <trkpt lat="43.70131" lon="-0.23422">
        <ele>83</ele>
        <time>2021-03-28T09:45:17Z</time>
      </trkpt>
      <trkpt lat="43.70138" lon="-0.23432">
        <ele>83</ele>
        <time>2021-03-28T09:45:24Z</time>
      </trkpt>
      <trkpt lat="43.70142" lon="-0.23429">
        <ele>83</ele>
        <time>2021-03-28T09:45:33Z</time>
      </trkpt>
      <trkpt lat="43.70142" lon="-0.23424">
        <ele>84</ele>
        <time>2021-03-28T09:45:49Z</time>
      </trkpt>
      <trkpt lat="43.7014" lon="-0.23421">
        <ele>84</ele>
        <time>2021-03-28T09:45:53Z</time>
      </trkpt>
      <trkpt lat="43.7014" lon="-0.23416">
        <ele>84</ele>
        <time>2021-03-28T09:45:56Z</time>
      </trkpt>
      <trkpt lat="43.70135" lon="-0.2342">
        <ele>84</ele>
        <time>2021-03-28T09:46:04Z</time>
      </trkpt>
      <trkpt lat="43.70141" lon="-0.23425">
        <ele>84</ele>
        <time>2021-03-28T09:46:45Z</time>
      </trkpt>
      <trkpt lat="43.7015" lon="-0.23433">
        <ele>84</ele>
        <time>2021-03-28T09:46:55Z</time>
      </trkpt>
      <trkpt lat="43.70152" lon="-0.23437">
        <ele>84</ele>
        <time>2021-03-28T09:47:06Z</time>
      </trkpt>
      <trkpt lat="43.70157" lon="-0.23436">
        <ele>84</ele>
        <time>2021-03-28T09:47:12Z</time>
      </trkpt>
      <trkpt lat="43.7016" lon="-0.23441">
        <ele>84</ele>
        <time>2021-03-28T09:47:29Z</time>
      </trkpt>
      <trkpt lat="43.70158" lon="-0.23446">
        <ele>84</ele>
        <time>2021-03-28T09:47:33Z</time>
      </trkpt>
      <trkpt lat="43.70154" lon="-0.23454">
        <ele>84</ele>
        <time>2021-03-28T09:47:50Z</time>
      </trkpt>
      <trkpt lat="43.70151" lon="-0.23456">
        <ele>84</ele>
        <time>2021-03-28T09:47:52Z</time>
      </trkpt>
      <trkpt lat="43.70151" lon="-0.23461">
        <ele>84</ele>
        <time>2021-03-28T09:47:55Z</time>
      </trkpt>
      <trkpt lat="43.70146" lon="-0.23475">
        <ele>83</ele>
        <time>2021-03-28T09:48:06Z</time>
      </trkpt>
      <trkpt lat="43.70143" lon="-0.23482">
        <ele>83</ele>
        <time>2021-03-28T09:48:12Z</time>
      </trkpt>
      <trkpt lat="43.70143" lon="-0.23487">
        <ele>83</ele>
        <time>2021-03-28T09:48:15Z</time>
      </trkpt>
      <trkpt lat="43.70145" lon="-0.23503">
        <ele>83</ele>
        <time>2021-03-28T09:48:24Z</time>
      </trkpt>
      <trkpt lat="43.70148" lon="-0.23509">
        <ele>83</ele>
        <time>2021-03-28T09:48:27Z</time>
      </trkpt>
      <trkpt lat="43.70153" lon="-0.23518">
        <ele>83</ele>
        <time>2021-03-28T09:48:35Z</time>
      </trkpt>
      <trkpt lat="43.70153" lon="-0.23525">
        <ele>83</ele>
        <time>2021-03-28T09:48:38Z</time>
      </trkpt>
      <trkpt lat="43.70157" lon="-0.23553">
        <ele>83</ele>
        <time>2021-03-28T09:48:53Z</time>
      </trkpt>
      <trkpt lat="43.70157" lon="-0.23559">
        <ele>83</ele>
        <time>2021-03-28T09:48:56Z</time>
      </trkpt>
      <trkpt lat="43.70156" lon="-0.23564">
        <ele>83</ele>
        <time>2021-03-28T09:48:59Z</time>
      </trkpt>
      <trkpt lat="43.70157" lon="-0.23586">
        <ele>83</ele>
        <time>2021-03-28T09:49:12Z</time>
      </trkpt>
      <trkpt lat="43.70163" lon="-0.23613">
        <ele>83</ele>
        <time>2021-03-28T09:49:28Z</time>
      </trkpt>
      <trkpt lat="43.70168" lon="-0.23624">
        <ele>83</ele>
        <time>2021-03-28T09:49:36Z</time>
      </trkpt>
      <trkpt lat="43.70169" lon="-0.23634">
        <ele>83</ele>
        <time>2021-03-28T09:49:42Z</time>
      </trkpt>
      <trkpt lat="43.70172" lon="-0.23639">
        <ele>83</ele>
        <time>2021-03-28T09:49:46Z</time>
      </trkpt>
      <trkpt lat="43.70175" lon="-0.23654">
        <ele>83</ele>
        <time>2021-03-28T09:50:12Z</time>
      </trkpt>
      <trkpt lat="43.70173" lon="-0.23659">
        <ele>83</ele>
        <time>2021-03-28T09:50:18Z</time>
      </trkpt>
      <trkpt lat="43.70175" lon="-0.23672">
        <ele>83</ele>
        <time>2021-03-28T09:50:26Z</time>
      </trkpt>
      <trkpt lat="43.70174" lon="-0.23679">
        <ele>83</ele>
        <time>2021-03-28T09:50:30Z</time>
      </trkpt>
      <trkpt lat="43.7017" lon="-0.23685">
        <ele>83</ele>
        <time>2021-03-28T09:50:34Z</time>
      </trkpt>
      <trkpt lat="43.70166" lon="-0.23691">
        <ele>83</ele>
        <time>2021-03-28T09:50:37Z</time>
      </trkpt>
      <trkpt lat="43.70178" lon="-0.23688">
        <ele>83</ele>
        <time>2021-03-28T09:50:48Z</time>
      </trkpt>
      <trkpt lat="43.70227" lon="-0.23675">
        <ele>83</ele>
        <time>2021-03-28T09:51:21Z</time>
      </trkpt>
      <trkpt lat="43.70233" lon="-0.23671">
        <ele>83</ele>
        <time>2021-03-28T09:51:25Z</time>
      </trkpt>
      <trkpt lat="43.70238" lon="-0.23665">
        <ele>83</ele>
        <time>2021-03-28T09:51:29Z</time>
      </trkpt>
      <trkpt lat="43.70245" lon="-0.23661">
        <ele>83</ele>
        <time>2021-03-28T09:51:38Z</time>
      </trkpt>
      <trkpt lat="43.70252" lon="-0.2366">
        <ele>83</ele>
        <time>2021-03-28T09:51:43Z</time>
      </trkpt>
      <trkpt lat="43.70258" lon="-0.2366">
        <ele>83</ele>
        <time>2021-03-28T09:51:48Z</time>
      </trkpt>
      <trkpt lat="43.7027" lon="-0.23661">
        <ele>83</ele>
        <time>2021-03-28T09:52:00Z</time>
      </trkpt>
      <trkpt lat="43.70274" lon="-0.23657">
        <ele>83</ele>
        <time>2021-03-28T09:52:05Z</time>
      </trkpt>
      <trkpt lat="43.70279" lon="-0.23656">
        <ele>83</ele>
        <time>2021-03-28T09:52:15Z</time>
      </trkpt>
      <trkpt lat="43.70284" lon="-0.23653">
        <ele>84</ele>
        <time>2021-03-28T09:52:39Z</time>
      </trkpt>
    </trkseg>
  </trk>
</gpx>